Wetterdaten: Samstag, 13.06.2020
Datum Zeit Temp. Aussen Temp. o. S. Temp +5cm Feuchte Auss Luftdruck Regen Sonnenschein Regendauer Solar Windben Empfang
13.06.2020 00:00 17,8 C 15,6 C 16,1 C 88 % 1007,7 hPa 0,0 l/m 0 min 0 min 0 W/m 0,0 km/h (0 Bft) 100,00 %
13.06.2020 00:02 17,8 C 15,6 C 16,1 C 88 % 1007,7 hPa 0,0 l/m 0 min 0 min 0 W/m 0,0 km/h (0 Bft) 97,44 %
13.06.2020 00:04 17,8 C 15,6 C 16,1 C 88 % 1007,8 hPa 0,0 l/m 0 min 0 min 0 W/m 0,0 km/h (0 Bft) 100,00 %
13.06.2020 00:08 17,8 C 15,6 C 16,1 C 89 % 1007,9 hPa 0,0 l/m 0 min 0 min 0 W/m 0,0 km/h (0 Bft) 100,00 %
13.06.2020 00:10 17,8 C 15,6 C 16,1 C 89 % 1007,8 hPa 0,0 l/m 0 min 0 min 0 W/m 0,0 km/h (0 Bft) 100,00 %
13.06.2020 00:12 17,7 C 15,6 C 16,1 C 89 % 1007,9 hPa 0,0 l/m 0 min 0 min 0 W/m 0,0 km/h (0 Bft) 100,00 %
13.06.2020 00:14 17,7 C 15,6 C 16,1 C 89 % 1007,9 hPa 0,0 l/m 0 min 0 min 0 W/m 0,0 km/h (0 Bft) 100,00 %
13.06.2020 00:16 17,7 C 15,6 C 16,1 C 89 % 1007,9 hPa 0,0 l/m 0 min 0 min 0 W/m 0,0 km/h (0 Bft) 100,00 %
13.06.2020 00:18 17,7 C 15,6 C 16,1 C 89 % 1007,8 hPa 0,0 l/m 0 min 0 min 0 W/m 0,0 km/h (0 Bft) 100,00 %
13.06.2020 00:20 17,7 C 15,6 C 16,1 C 89 % 1007,9 hPa 0,0 l/m 0 min 0 min 0 W/m 0,0 km/h (0 Bft) 100,00 %
13.06.2020 00:22 17,6 C 15,6 C 16,1 C 89 % 1008,0 hPa 0,0 l/m 0 min 0 min 0 W/m 0,0 km/h (0 Bft) 100,00 %
13.06.2020 00:24 17,6 C 15,6 C 16,1 C 89 % 1008,0 hPa 0,0 l/m 0 min 0 min 0 W/m 0,0 km/h (0 Bft) 95,74 %
13.06.2020 00:26 17,6 C 15,6 C 16,1 C 89 % 1008,1 hPa 0,0 l/m 0 min 0 min 0 W/m 0,0 km/h (0 Bft) 100,00 %
13.06.2020 00:28 17,6 C 15,6 C 16,1 C 89 % 1008,1 hPa 0,0 l/m 0 min 0 min 0 W/m 0,0 km/h (0 Bft) 100,00 %
13.06.2020 00:30 17,6 C 16,1 C 16,1 C 90 % 1008,2 hPa 0,0 l/m 0 min 0 min 0 W/m 0,0 km/h (0 Bft) 100,00 %
13.06.2020 00:32 17,6 C 16,1 C 16,1 C 90 % 1008,4 hPa 0,0 l/m 0 min 0 min 0 W/m 0,0 km/h (0 Bft) 97,87 %
13.06.2020 00:34 17,6 C 16,1 C 16,1 C 90 % 1008,4 hPa 0,0 l/m 0 min 0 min 0 W/m 0,0 km/h (0 Bft) 100,00 %
13.06.2020 00:36 17,5 C 16,1 C 16,1 C 90 % 1008,6 hPa 0,0 l/m 0 min 0 min 0 W/m 0,0 km/h (0 Bft) 100,00 %
13.06.2020 00:38 17,5 C 16,1 C 16,1 C 90 % 1008,6 hPa 0,0 l/m 0 min 0 min 0 W/m 0,0 km/h (0 Bft) 100,00 %
13.06.2020 00:40 17,5 C 16,1 C 16,1 C 90 % 1008,6 hPa 0,0 l/m 0 min 0 min 0 W/m 0,0 km/h (0 Bft) 100,00 %
13.06.2020 00:42 17,5 C 16,1 C 16,1 C 90 % 1008,7 hPa 0,0 l/m 0 min 0 min 0 W/m 0,0 km/h (0 Bft) 100,00 %
13.06.2020 00:44 17,5 C 16,1 C 16,1 C 90 % 1008,7 hPa 0,0 l/m 0 min 0 min 0 W/m 0,0 km/h (0 Bft) 100,00 %
13.06.2020 00:46 17,4 C 16,1 C 16,1 C 90 % 1008,7 hPa 0,0 l/m 0 min 0 min 0 W/m 0,0 km/h (0 Bft) 100,00 %
13.06.2020 00:48 17,4 C 15,6 C 16,1 C 91 % 1008,7 hPa 0,0 l/m 0 min 0 min 0 W/m 0,0 km/h (0 Bft) 100,00 %
13.06.2020 00:50 17,4 C 15,6 C 16,1 C 91 % 1008,7 hPa 0,0 l/m 0 min 0 min 0 W/m 0,0 km/h (0 Bft) 100,00 %
13.06.2020 00:52 17,4 C 15,6 C 16,1 C 91 % 1008,6 hPa 0,0 l/m 0 min 0 min 0 W/m 0,0 km/h (0 Bft) 100,00 %
13.06.2020 00:54 17,4 C 15,6 C 16,1 C 91 % 1008,6 hPa 0,0 l/m 0 min 0 min 0 W/m 0,0 km/h (0 Bft) 100,00 %
13.06.2020 00:56 17,4 C 15,6 C 16,1 C 91 % 1008,6 hPa 0,0 l/m 0 min 0 min 0 W/m 0,0 km/h (0 Bft) 100,00 %
13.06.2020 00:58 17,3 C 15,6 C 16,1 C 91 % 1008,6 hPa 0,0 l/m 0 min 0 min 0 W/m 3,2 km/h (1 Bft) 100,00 %
13.06.2020 01:00 17,3 C 15,6 C 16,1 C 91 % 1008,7 hPa 0,0 l/m 0 min 0 min 0 W/m 0,0 km/h (0 Bft) 97,83 %
13.06.2020 01:02 17,3 C 15,6 C 16,1 C 91 % 1008,6 hPa 0,0 l/m 0 min 0 min 0 W/m 0,0 km/h (0 Bft) 97,87 %
13.06.2020 01:04 17,3 C 15,6 C 16,1 C 91 % 1008,6 hPa 0,0 l/m 0 min 0 min 0 W/m 0,0 km/h (0 Bft) 97,87 %
13.06.2020 01:06 17,3 C 15,6 C 16,1 C 91 % 1008,8 hPa 0,0 l/m 0 min 0 min 0 W/m 6,4 km/h (2 Bft) 93,62 %
13.06.2020 01:08 17,3 C 16,1 C 16,1 C 91 % 1008,8 hPa 0,0 l/m 0 min 0 min 0 W/m 0,0 km/h (0 Bft) 97,87 %
13.06.2020 01:10 17,3 C 16,1 C 16,1 C 91 % 1008,6 hPa 0,0 l/m 0 min 0 min 0 W/m 0,0 km/h (0 Bft) 97,87 %
13.06.2020 01:12 17,3 C 16,1 C 16,1 C 91 % 1008,6 hPa 0,0 l/m 0 min 0 min 0 W/m 3,2 km/h (1 Bft) 97,83 %
13.06.2020 01:14 17,3 C 16,1 C 16,1 C 91 % 1008,8 hPa 0,0 l/m 0 min 0 min 0 W/m 6,4 km/h (2 Bft) 97,87 %
13.06.2020 01:16 17,2 C 16,1 C 16,1 C 91 % 1008,9 hPa 0,0 l/m 0 min 0 min 0 W/m 3,2 km/h (1 Bft) 97,87 %
13.06.2020 01:18 17,2 C 16,1 C 16,1 C 92 % 1008,9 hPa 0,0 l/m 0 min 0 min 0 W/m 0,0 km/h (0 Bft) 97,87 %
13.06.2020 01:20 17,2 C 15,6 C 16,1 C 92 % 1008,8 hPa 0,0 l/m 0 min 0 min 0 W/m 0,0 km/h (0 Bft) 95,74 %
13.06.2020 01:22 17,2 C 15,6 C 16,1 C 92 % 1008,9 hPa 0,0 l/m 0 min 0 min 0 W/m 3,2 km/h (1 Bft) 97,87 %
13.06.2020 01:24 17,2 C 15,6 C 16,1 C 92 % 1008,9 hPa 0,0 l/m 0 min 0 min 0 W/m 3,2 km/h (1 Bft) 95,65 %
13.06.2020 01:26 17,2 C 15,6 C 16,1 C 92 % 1009,0 hPa 0,0 l/m 0 min 0 min 0 W/m 0,0 km/h (0 Bft) 95,74 %
13.06.2020 01:28 17,2 C 15,6 C 16,1 C 92 % 1009,0 hPa 0,0 l/m 0 min 0 min 0 W/m 0,0 km/h (0 Bft) 97,87 %
13.06.2020 01:30 17,2 C 15,6 C 16,1 C 92 % 1009,0 hPa 0,0 l/m 0 min 0 min 0 W/m 0,0 km/h (0 Bft) 97,87 %
13.06.2020 01:32 17,1 C 15,6 C 16,1 C 92 % 1009,2 hPa 0,0 l/m 0 min 0 min 0 W/m 0,0 km/h (0 Bft) 97,87 %
13.06.2020 01:34 17,1 C 15,6 C 15,6 C 92 % 1009,4 hPa 0,0 l/m 0 min 0 min 0 W/m 0,0 km/h (0 Bft) 95,74 %
13.06.2020 01:36 17,1 C 15,6 C 16,1 C 92 % 1009,5 hPa 0,0 l/m 0 min 0 min 0 W/m 6,4 km/h (2 Bft) 95,65 %
13.06.2020 01:38 17,1 C 16,1 C 16,1 C 92 % 1009,6 hPa 0,0 l/m 0 min 0 min 0 W/m 6,4 km/h (2 Bft) 97,87 %
13.06.2020 01:40 17,1 C 16,1 C 16,1 C 92 % 1009,7 hPa 0,0 l/m 0 min 0 min 0 W/m 9,7 km/h (2 Bft) 93,62 %
13.06.2020 01:42 17,1 C 16,1 C 16,1 C 92 % 1009,8 hPa 0,0 l/m 0 min 0 min 0 W/m 12,9 km/h (3 Bft) 95,74 %
13.06.2020 01:44 17,1 C 16,1 C 16,1 C 92 % 1009,9 hPa 0,0 l/m 0 min 0 min 0 W/m 9,7 km/h (2 Bft) 95,74 %
13.06.2020 01:46 17,1 C 16,1 C 16,1 C 92 % 1009,8 hPa 0,0 l/m 0 min 0 min 0 W/m 6,4 km/h (2 Bft) 95,65 %
13.06.2020 01:48 17,1 C 16,1 C 16,1 C 92 % 1010,0 hPa 0,0 l/m 0 min 0 min 0 W/m 3,2 km/h (1 Bft) 95,74 %
13.06.2020 01:50 17,1 C 16,1 C 16,1 C 93 % 1010,1 hPa 0,0 l/m 0 min 0 min 0 W/m 3,2 km/h (1 Bft) 93,62 %
13.06.2020 01:52 17,1 C 16,1 C 16,1 C 93 % 1009,9 hPa 0,0 l/m 0 min 0 min 0 W/m 3,2 km/h (1 Bft) 95,74 %
13.06.2020 01:54 17,1 C 16,1 C 16,1 C 93 % 1010,0 hPa 0,0 l/m 0 min 0 min 0 W/m 3,2 km/h (1 Bft) 93,62 %
13.06.2020 01:56 17,1 C 16,1 C 16,1 C 93 % 1010,2 hPa 0,0 l/m 0 min 0 min 0 W/m 3,2 km/h (1 Bft) 95,74 %
13.06.2020 01:58 17,0 C 16,1 C 16,1 C 93 % 1010,2 hPa 0,0 l/m 0 min 0 min 0 W/m 16,1 km/h (3 Bft) 97,83 %
13.06.2020 02:00 17,0 C 15,6 C 16,1 C 93 % 1010,3 hPa 0,0 l/m 0 min 0 min 0 W/m 6,4 km/h (2 Bft) 97,87 %
13.06.2020 02:02 17,0 C 15,6 C 16,1 C 93 % 1010,3 hPa 0,0 l/m 0 min 0 min 0 W/m 19,3 km/h (3 Bft) 95,74 %
13.06.2020 02:04 17,0 C 15,6 C 16,1 C 93 % 1010,4 hPa 0,0 l/m 0 min 0 min 0 W/m 3,2 km/h (1 Bft) 97,87 %
13.06.2020 02:06 17,0 C 15,6 C 16,1 C 93 % 1010,4 hPa 0,0 l/m 0 min 0 min 0 W/m 12,9 km/h (3 Bft) 97,87 %
13.06.2020 02:08 17,0 C 15,6 C 16,1 C 93 % 1010,5 hPa 0,0 l/m 0 min 0 min 0 W/m 12,9 km/h (3 Bft) 97,87 %
13.06.2020 02:10 16,9 C 15,6 C 16,1 C 93 % 1010,5 hPa 0,0 l/m 0 min 0 min 0 W/m 12,9 km/h (3 Bft) 95,65 %
13.06.2020 02:12 16,9 C 15,6 C 16,1 C 93 % 1010,6 hPa 0,0 l/m 0 min 0 min 0 W/m 6,4 km/h (2 Bft) 97,87 %
13.06.2020 02:14 16,9 C 15,6 C 16,1 C 93 % 1010,6 hPa 0,0 l/m 0 min 0 min 0 W/m 12,9 km/h (3 Bft) 95,74 %
13.06.2020 02:16 16,9 C 15,6 C 16,1 C 93 % 1010,4 hPa 0,0 l/m 0 min 0 min 0 W/m 0,0 km/h (0 Bft) 97,87 %
13.06.2020 02:18 16,9 C 15,6 C 16,1 C 93 % 1010,3 hPa 0,0 l/m 0 min 0 min 0 W/m 0,0 km/h (0 Bft) 97,87 %
13.06.2020 02:20 16,9 C 15,6 C 16,1 C 93 % 1010,3 hPa 0,0 l/m 0 min 0 min 0 W/m 3,2 km/h (1 Bft) 97,87 %
13.06.2020 02:22 16,9 C 15,6 C 16,1 C 93 % 1010,4 hPa 0,0 l/m 0 min 0 min 0 W/m 0,0 km/h (0 Bft) 97,83 %
13.06.2020 02:24 16,9 C 15,6 C 16,1 C 93 % 1010,4 hPa 0,0 l/m 0 min 0 min 0 W/m 0,0 km/h (0 Bft) 97,87 %
13.06.2020 02:26 16,9 C 15,6 C 16,1 C 93 % 1010,4 hPa 0,0 l/m 0 min 0 min 0 W/m 0,0 km/h (0 Bft) 95,74 %
13.06.2020 02:28 16,9 C 15,6 C 16,1 C 93 % 1010,2 hPa 0,0 l/m 0 min 0 min 0 W/m 3,2 km/h (1 Bft) 100,00 %
13.06.2020 02:30 16,9 C 15,6 C 15,6 C 94 % 1010,3 hPa 0,0 l/m 0 min 0 min 0 W/m 3,2 km/h (1 Bft) 100,00 %
13.06.2020 02:32 16,8 C 15,6 C 15,6 C 94 % 1010,2 hPa 0,0 l/m 0 min 0 min 0 W/m 6,4 km/h (2 Bft) 100,00 %
13.06.2020 02:34 16,8 C 15,6 C 16,1 C 94 % 1010,2 hPa 0,0 l/m 0 min 0 min 0 W/m 6,4 km/h (2 Bft) 100,00 %
13.06.2020 02:36 16,8 C 15,6 C 16,1 C 94 % 1010,1 hPa 0,0 l/m 0 min 0 min 0 W/m 3,2 km/h (1 Bft) 100,00 %
13.06.2020 02:38 16,8 C 15,6 C 16,1 C 94 % 1010,2 hPa 0,0 l/m 0 min 0 min 0 W/m 3,2 km/h (1 Bft) 97,87 %
13.06.2020 02:40 16,8 C 15,6 C 16,1 C 94 % 1010,3 hPa 0,0 l/m 0 min 0 min 0 W/m 3,2 km/h (1 Bft) 97,87 %
13.06.2020 02:42 16,8 C 15,6 C 15,6 C 94 % 1010,4 hPa 0,0 l/m 0 min 0 min 0 W/m 0,0 km/h (0 Bft) 97,87 %
13.06.2020 02:44 16,8 C 15,6 C 15,6 C 94 % 1010,2 hPa 0,0 l/m 0 min 0 min 0 W/m 0,0 km/h (0 Bft) 97,83 %
13.06.2020 02:46 16,8 C 15,6 C 15,6 C 94 % 1010,2 hPa 0,0 l/m 0 min 0 min 0 W/m 0,0 km/h (0 Bft) 97,87 %
13.06.2020 02:48 16,8 C 15,6 C 15,6 C 94 % 1010,2 hPa 0,0 l/m 0 min 0 min 0 W/m 0,0 km/h (0 Bft) 95,74 %
13.06.2020 02:50 16,8 C 15,6 C 15,6 C 94 % 1010,4 hPa 0,0 l/m 0 min 0 min 0 W/m 0,0 km/h (0 Bft) 97,87 %
13.06.2020 02:52 16,8 C 15,6 C 15,6 C 94 % 1010,5 hPa 0,0 l/m 0 min 0 min 0 W/m 6,4 km/h (2 Bft) 97,87 %
13.06.2020 02:54 16,8 C 15,6 C 15,6 C 94 % 1010,6 hPa 0,0 l/m 0 min 0 min 0 W/m 3,2 km/h (1 Bft) 97,87 %
13.06.2020 02:56 16,8 C 15,6 C 15,6 C 94 % 1010,7 hPa 0,0 l/m 0 min 0 min 0 W/m 9,7 km/h (2 Bft) 93,48 %
13.06.2020 02:58 16,8 C 15,6 C 15,6 C 94 % 1010,8 hPa 0,0 l/m 0 min 0 min 0 W/m 3,2 km/h (1 Bft) 97,87 %
13.06.2020 03:00 16,8 C 15,6 C 15,6 C 94 % 1010,8 hPa 0,0 l/m 0 min 0 min 0 W/m 0,0 km/h (0 Bft) 97,87 %
13.06.2020 03:02 16,7 C 15,6 C 15,6 C 94 % 1010,8 hPa 0,0 l/m 0 min 0 min 0 W/m 3,2 km/h (1 Bft) 97,87 %
13.06.2020 03:04 16,7 C 15,6 C 15,6 C 94 % 1010,8 hPa 0,0 l/m 0 min 0 min 0 W/m 0,0 km/h (0 Bft) 97,87 %
13.06.2020 03:06 16,7 C 15,6 C 15,6 C 94 % 1010,7 hPa 0,0 l/m 0 min 0 min 0 W/m 3,2 km/h (1 Bft) 97,87 %
13.06.2020 03:08 16,7 C 15,6 C 15,6 C 94 % 1010,6 hPa 0,0 l/m 0 min 2 min 0 W/m 0,0 km/h (0 Bft) 97,83 %
13.06.2020 03:10 16,7 C 15,6 C 15,6 C 94 % 1010,6 hPa 0,0 l/m 0 min 2 min 0 W/m 3,2 km/h (1 Bft) 97,87 %
13.06.2020 03:12 16,7 C 15,6 C 15,6 C 94 % 1010,6 hPa 0,0 l/m 0 min 0 min 0 W/m 0,0 km/h (0 Bft) 97,87 %
13.06.2020 03:14 16,7 C 15,6 C 15,6 C 94 % 1010,7 hPa 0,0 l/m 0 min 0 min 0 W/m 0,0 km/h (0 Bft) 97,87 %
13.06.2020 03:16 16,7 C 15,6 C 15,6 C 94 % 1010,7 hPa 0,0 l/m 0 min 2 min 0 W/m 3,2 km/h (1 Bft) 97,87 %
13.06.2020 03:18 16,7 C 15,0 C 15,6 C 94 % 1010,7 hPa 0,2 l/m 0 min 2 min 0 W/m 3,2 km/h (1 Bft) 97,87 %
13.06.2020 03:20 16,7 C 15,0 C 15,6 C 94 % 1010,6 hPa 0,0 l/m 0 min 2 min 0 W/m 0,0 km/h (0 Bft) 97,83 %
13.06.2020 03:22 16,7 C 15,0 C 15,0 C 94 % 1010,6 hPa 0,0 l/m 0 min 2 min 0 W/m 0,0 km/h (0 Bft) 97,87 %
13.06.2020 03:24 16,7 C 15,0 C 15,0 C 94 % 1010,5 hPa 0,0 l/m 0 min 2 min 0 W/m 0,0 km/h (0 Bft) 97,87 %
13.06.2020 03:26 16,7 C 15,0 C 15,0 C 94 % 1010,4 hPa 0,0 l/m 0 min 0 min 0 W/m 0,0 km/h (0 Bft) 97,87 %
13.06.2020 03:28 16,7 C 15,0 C 15,0 C 94 % 1010,4 hPa 0,0 l/m 0 min 2 min 0 W/m 0,0 km/h (0 Bft) 97,87 %
13.06.2020 03:30 16,7 C 15,0 C 15,0 C 94 % 1010,4 hPa 0,0 l/m 0 min 2 min 0 W/m 0,0 km/h (0 Bft) 97,87 %
13.06.2020 03:32 16,7 C 15,0 C 15,0 C 94 % 1010,2 hPa 0,2 l/m 0 min 0 min 0 W/m 0,0 km/h (0 Bft) 97,83 %
13.06.2020 03:34 16,7 C 15,0 C 15,0 C 94 % 1010,1 hPa 0,0 l/m 0 min 0 min 0 W/m 0,0 km/h (0 Bft) 97,87 %
13.06.2020 03:36 16,7 C 14,4 C 15,0 C 94 % 1010,2 hPa 0,0 l/m 0 min 0 min 0 W/m 0,0 km/h (0 Bft) 95,74 %
13.06.2020 03:38 16,7 C 15,0 C 15,0 C 94 % 1010,2 hPa 0,0 l/m 0 min 2 min 0 W/m 0,0 km/h (0 Bft) 95,74 %
13.06.2020 03:40 16,7 C 14,4 C 15,0 C 94 % 1010,1 hPa 0,0 l/m 0 min 2 min 0 W/m 0,0 km/h (0 Bft) 100,00 %
13.06.2020 03:42 16,6 C 14,4 C 15,0 C 94 % 1010,0 hPa 0,0 l/m 0 min 2 min 0 W/m 0,0 km/h (0 Bft) 100,00 %
13.06.2020 03:44 16,6 C 14,4 C 15,0 C 94 % 1010,0 hPa 0,0 l/m 0 min 2 min 0 W/m 0,0 km/h (0 Bft) 95,65 %
13.06.2020 03:46 16,6 C 14,4 C 15,0 C 94 % 1009,9 hPa 0,0 l/m 0 min 2 min 0 W/m 0,0 km/h (0 Bft) 97,87 %
13.06.2020 03:48 16,6 C 14,4 C 15,0 C 94 % 1009,9 hPa 0,0 l/m 0 min 2 min 0 W/m 0,0 km/h (0 Bft) 100,00 %
13.06.2020 03:50 16,6 C 14,4 C 15,0 C 94 % 1009,9 hPa 0,0 l/m 0 min 2 min 0 W/m 0,0 km/h (0 Bft) 100,00 %
13.06.2020 03:52 16,6 C 14,4 C 15,0 C 94 % 1010,0 hPa 0,0 l/m 0 min 0 min 0 W/m 0,0 km/h (0 Bft) 100,00 %
13.06.2020 03:54 16,6 C 14,4 C 15,0 C 94 % 1009,9 hPa 0,0 l/m 0 min 0 min 0 W/m 0,0 km/h (0 Bft) 97,83 %
13.06.2020 03:56 16,6 C 14,4 C 15,0 C 94 % 1009,7 hPa 0,0 l/m 0 min 2 min 0 W/m 0,0 km/h (0 Bft) 97,87 %
13.06.2020 03:58 16,6 C 14,4 C 15,0 C 94 % 1009,7 hPa 0,0 l/m 0 min 0 min 0 W/m 0,0 km/h (0 Bft) 97,87 %
13.06.2020 04:00 16,6 C 14,4 C 15,0 C 94 % 1009,7 hPa 0,0 l/m 0 min 0 min 0 W/m 0,0 km/h (0 Bft) 93,62 %
13.06.2020 04:02 16,5 C 14,4 C 15,0 C 94 % 1009,7 hPa 0,0 l/m 0 min 0 min 0 W/m 0,0 km/h (0 Bft) 97,14 %
13.06.2020 04:04 16,5 C 14,4 C 15,0 C 94 % 1009,5 hPa 0,0 l/m 0 min 0 min 0 W/m 0,0 km/h (0 Bft) 95,74 %
13.06.2020 04:06 16,5 C 14,4 C 15,0 C 94 % 1009,5 hPa 0,0 l/m 0 min 0 min 0 W/m 0,0 km/h (0 Bft) 97,87 %
13.06.2020 04:08 16,5 C 14,4 C 15,0 C 94 % 1009,4 hPa 0,0 l/m 0 min 0 min 0 W/m 0,0 km/h (0 Bft) 97,87 %
13.06.2020 04:10 16,4 C 14,4 C 15,0 C 95 % 1009,4 hPa 0,0 l/m 0 min 0 min 0 W/m 0,0 km/h (0 Bft) 97,87 %
13.06.2020 04:12 16,4 C 14,4 C 15,0 C 95 % 1009,4 hPa 0,0 l/m 0 min 0 min 0 W/m 0,0 km/h (0 Bft) 95,65 %
13.06.2020 04:14 16,4 C 14,4 C 15,0 C 95 % 1009,5 hPa 0,0 l/m 0 min 0 min 0 W/m 0,0 km/h (0 Bft) 93,62 %
13.06.2020 04:16 16,4 C 14,4 C 15,0 C 95 % 1009,6 hPa 0,0 l/m 0 min 0 min 0 W/m 0,0 km/h (0 Bft) 95,74 %
13.06.2020 04:18 16,4 C 14,4 C 15,0 C 95 % 1009,5 hPa 0,0 l/m 0 min 0 min 0 W/m 0,0 km/h (0 Bft) 97,87 %
13.06.2020 04:20 16,4 C 14,4 C 15,0 C 95 % 1009,5 hPa 0,0 l/m 0 min 0 min 0 W/m 0,0 km/h (0 Bft) 95,74 %
13.06.2020 04:22 16,4 C 14,4 C 15,0 C 95 % 1009,5 hPa 0,0 l/m 0 min 0 min 0 W/m 0,0 km/h (0 Bft) 97,87 %
13.06.2020 04:24 16,4 C 14,4 C 15,0 C 95 % 1009,5 hPa 0,0 l/m 0 min 0 min 0 W/m 0,0 km/h (0 Bft) 95,65 %
13.06.2020 04:26 16,4 C 14,4 C 15,0 C 95 % 1009,5 hPa 0,0 l/m 0 min 0 min 0 W/m 0,0 km/h (0 Bft) 95,74 %
13.06.2020 04:28 16,3 C 14,4 C 15,0 C 95 % 1009,5 hPa 0,0 l/m 0 min 0 min 0 W/m 0,0 km/h (0 Bft) 93,62 %
13.06.2020 04:30 16,3 C 14,4 C 15,0 C 95 % 1009,5 hPa 0,0 l/m 0 min 0 min 0 W/m 0,0 km/h (0 Bft) 95,74 %
13.06.2020 04:32 16,3 C 14,4 C 15,0 C 95 % 1009,6 hPa 0,0 l/m 0 min 0 min 0 W/m 0,0 km/h (0 Bft) 93,62 %
13.06.2020 04:34 16,3 C 14,4 C 15,0 C 95 % 1009,7 hPa 0,0 l/m 0 min 0 min 0 W/m 6,4 km/h (2 Bft) 95,74 %
13.06.2020 04:36 16,3 C 15,0 C 15,0 C 95 % 1010,0 hPa 0,0 l/m 0 min 0 min 0 W/m 3,2 km/h (1 Bft) 95,65 %
13.06.2020 04:38 16,3 C 15,0 C 15,0 C 95 % 1010,1 hPa 0,0 l/m 0 min 0 min 0 W/m 3,2 km/h (1 Bft) 95,74 %
13.06.2020 04:40 16,3 C 15,0 C 15,0 C 95 % 1010,0 hPa 0,0 l/m 0 min 0 min 0 W/m 12,9 km/h (3 Bft) 95,74 %
13.06.2020 04:42 16,3 C 15,0 C 15,0 C 95 % 1010,0 hPa 0,0 l/m 0 min 0 min 0 W/m 0,0 km/h (0 Bft) 95,74 %
13.06.2020 04:44 16,3 C 15,0 C 15,0 C 95 % 1010,0 hPa 0,0 l/m 0 min 0 min 0 W/m 3,2 km/h (1 Bft) 95,74 %
13.06.2020 04:46 16,3 C 15,0 C 15,0 C 95 % 1009,9 hPa 0,0 l/m 0 min 0 min 0 W/m 0,0 km/h (0 Bft) 93,48 %
13.06.2020 04:48 16,3 C 14,4 C 15,0 C 95 % 1009,8 hPa 0,0 l/m 0 min 0 min 0 W/m 0,0 km/h (0 Bft) 97,87 %
13.06.2020 04:50 16,3 C 14,4 C 15,0 C 95 % 1009,9 hPa 0,0 l/m 0 min 0 min 0 W/m 0,0 km/h (0 Bft) 97,87 %
13.06.2020 04:52 16,3 C 14,4 C 15,0 C 95 % 1009,8 hPa 0,0 l/m 0 min 0 min 0 W/m 0,0 km/h (0 Bft) 93,62 %
13.06.2020 04:54 16,3 C 14,4 C 15,0 C 95 % 1009,8 hPa 0,0 l/m 0 min 0 min 0 W/m 0,0 km/h (0 Bft) 95,74 %
13.06.2020 04:56 16,3 C 14,4 C 15,0 C 95 % 1009,8 hPa 0,0 l/m 0 min 0 min 0 W/m 0,0 km/h (0 Bft) 97,87 %
13.06.2020 04:58 16,3 C 14,4 C 15,0 C 95 % 1009,8 hPa 0,0 l/m 0 min 0 min 0 W/m 0,0 km/h (0 Bft) 97,87 %
13.06.2020 05:00 16,3 C 14,4 C 15,0 C 95 % 1009,7 hPa 0,0 l/m 0 min 0 min 0 W/m 0,0 km/h (0 Bft) 97,83 %
13.06.2020 05:02 16,3 C 14,4 C 15,0 C 95 % 1009,9 hPa 0,0 l/m 0 min 0 min 0 W/m 0,0 km/h (0 Bft) 95,74 %
13.06.2020 05:04 16,3 C 14,4 C 15,0 C 95 % 1010,0 hPa 0,0 l/m 0 min 0 min 0 W/m 0,0 km/h (0 Bft) 95,74 %
13.06.2020 05:06 16,3 C 14,4 C 15,0 C 96 % 1009,9 hPa 0,0 l/m 0 min 0 min 0 W/m 0,0 km/h (0 Bft) 97,87 %
13.06.2020 05:08 16,3 C 14,4 C 15,0 C 96 % 1009,9 hPa 0,0 l/m 0 min 0 min 0 W/m 0,0 km/h (0 Bft) 100,00 %
13.06.2020 05:10 16,2 C 14,4 C 15,0 C 96 % 1010,0 hPa 0,0 l/m 0 min 0 min 0 W/m 0,0 km/h (0 Bft) 97,83 %
13.06.2020 05:12 16,2 C 14,4 C 15,0 C 96 % 1010,0 hPa 0,0 l/m 0 min 0 min 0 W/m 0,0 km/h (0 Bft) 100,00 %
13.06.2020 05:14 16,2 C 14,4 C 15,0 C 96 % 1009,9 hPa 0,0 l/m 0 min 0 min 0 W/m 0,0 km/h (0 Bft) 100,00 %
13.06.2020 05:16 16,2 C 14,4 C 15,0 C 96 % 1009,8 hPa 0,0 l/m 0 min 0 min 0 W/m 0,0 km/h (0 Bft) 100,00 %
13.06.2020 05:18 16,2 C 14,4 C 15,0 C 96 % 1009,7 hPa 0,0 l/m 0 min 0 min 0 W/m 0,0 km/h (0 Bft) 100,00 %
13.06.2020 05:20 16,2 C 14,4 C 15,0 C 96 % 1009,7 hPa 0,0 l/m 0 min 0 min 3 W/m 0,0 km/h (0 Bft) 100,00 %
13.06.2020 05:22 16,2 C 14,4 C 15,0 C 96 % 1009,6 hPa 0,0 l/m 0 min 0 min 5 W/m 0,0 km/h (0 Bft) 100,00 %
13.06.2020 05:24 16,2 C 14,4 C 15,0 C 96 % 1009,5 hPa 0,0 l/m 0 min 0 min 5 W/m 0,0 km/h (0 Bft) 100,00 %
13.06.2020 05:26 16,2 C 14,4 C 15,0 C 96 % 1009,5 hPa 0,0 l/m 0 min 0 min 7 W/m 0,0 km/h (0 Bft) 100,00 %
13.06.2020 05:28 16,2 C 14,4 C 15,0 C 96 % 1009,4 hPa 0,0 l/m 0 min 0 min 9 W/m 0,0 km/h (0 Bft) 100,00 %
13.06.2020 05:30 16,2 C 14,4 C 14,4 C 96 % 1009,3 hPa 0,0 l/m 0 min 0 min 10 W/m 3,2 km/h (1 Bft) 100,00 %
13.06.2020 05:32 16,2 C 14,4 C 14,4 C 96 % 1009,3 hPa 0,0 l/m 0 min 0 min 12 W/m 0,0 km/h (0 Bft) 100,00 %
13.06.2020 05:34 16,2 C 14,4 C 15,0 C 96 % 1009,2 hPa 0,0 l/m 0 min 0 min 14 W/m 0,0 km/h (0 Bft) 100,00 %
13.06.2020 05:36 16,1 C 14,4 C 15,0 C 96 % 1009,2 hPa 0,0 l/m 0 min 0 min 15 W/m 0,0 km/h (0 Bft) 100,00 %
13.06.2020 05:38 16,1 C 14,4 C 15,0 C 96 % 1009,2 hPa 0,0 l/m 0 min 0 min 16 W/m 0,0 km/h (0 Bft) 100,00 %
13.06.2020 05:40 16,1 C 14,4 C 15,0 C 96 % 1009,0 hPa 0,0 l/m 0 min 0 min 18 W/m 0,0 km/h (0 Bft) 100,00 %
13.06.2020 05:42 16,1 C 14,4 C 15,0 C 96 % 1008,8 hPa 0,0 l/m 2 min 0 min 21 W/m 0,0 km/h (0 Bft) 100,00 %
13.06.2020 05:44 16,1 C 15,0 C 15,0 C 96 % 1008,7 hPa 0,0 l/m 2 min 0 min 22 W/m 0,0 km/h (0 Bft) 100,00 %
13.06.2020 05:46 16,1 C 15,0 C 15,0 C 96 % 1008,6 hPa 0,0 l/m 0 min 0 min 19 W/m 0,0 km/h (0 Bft) 97,83 %
13.06.2020 05:48 16,1 C 15,0 C 15,0 C 96 % 1008,7 hPa 0,0 l/m 0 min 0 min 19 W/m 3,2 km/h (1 Bft) 100,00 %
13.06.2020 05:50 16,1 C 15,0 C 15,0 C 96 % 1008,9 hPa 0,0 l/m 0 min 0 min 19 W/m 3,2 km/h (1 Bft) 100,00 %
13.06.2020 05:52 16,1 C 15,0 C 15,0 C 96 % 1009,1 hPa 0,0 l/m 0 min 0 min 19 W/m 3,2 km/h (1 Bft) 100,00 %
13.06.2020 05:54 16,1 C 15,0 C 15,0 C 96 % 1009,3 hPa 0,0 l/m 0 min 0 min 16 W/m 6,4 km/h (2 Bft) 100,00 %
13.06.2020 05:56 16,1 C 15,0 C 15,0 C 96 % 1009,7 hPa 0,0 l/m 0 min 0 min 14 W/m 12,9 km/h (3 Bft) 100,00 %
13.06.2020 05:58 16,1 C 15,0 C 15,0 C 96 % 1009,9 hPa 0,0 l/m 0 min 0 min 14 W/m 12,9 km/h (3 Bft) 100,00 %
13.06.2020 06:00 16,1 C 15,0 C 15,0 C 96 % 1009,8 hPa 0,0 l/m 0 min 0 min 14 W/m 6,4 km/h (2 Bft) 100,00 %
13.06.2020 06:02 16,1 C 15,0 C 15,0 C 96 % 1009,8 hPa 0,0 l/m 0 min 0 min 14 W/m 3,2 km/h (1 Bft) 97,87 %
13.06.2020 06:04 16,1 C 15,0 C 15,0 C 96 % 1009,8 hPa 0,0 l/m 0 min 0 min 14 W/m 0,0 km/h (0 Bft) 97,87 %
13.06.2020 06:08 16,1 C 15,0 C 15,0 C 96 % 1009,9 hPa 0,0 l/m 0 min 0 min 19 W/m 3,2 km/h (1 Bft) 98,95 %
13.06.2020 06:10 16,1 C 15,0 C 15,0 C 96 % 1010,0 hPa 0,0 l/m 0 min 0 min 29 W/m 3,2 km/h (1 Bft) 100,00 %
13.06.2020 06:12 16,1 C 15,0 C 15,0 C 96 % 1009,9 hPa 0,0 l/m 0 min 0 min 38 W/m 0,0 km/h (0 Bft) 100,00 %
13.06.2020 06:14 16,1 C 15,0 C 15,0 C 97 % 1009,8 hPa 0,0 l/m 0 min 0 min 46 W/m 0,0 km/h (0 Bft) 100,00 %
13.06.2020 06:16 16,1 C 15,0 C 15,0 C 97 % 1009,9 hPa 0,0 l/m 0 min 0 min 54 W/m 0,0 km/h (0 Bft) 100,00 %
13.06.2020 06:18 16,1 C 15,6 C 15,0 C 97 % 1009,8 hPa 0,0 l/m 0 min 0 min 61 W/m 0,0 km/h (0 Bft) 100,00 %
13.06.2020 06:20 16,2 C 15,6 C 15,0 C 97 % 1009,4 hPa 0,0 l/m 0 min 0 min 62 W/m 0,0 km/h (0 Bft) 100,00 %
13.06.2020 06:22 16,1 C 15,6 C 15,0 C 97 % 1009,5 hPa 0,0 l/m 0 min 0 min 57 W/m 0,0 km/h (0 Bft) 100,00 %
13.06.2020 06:24 16,1 C 15,6 C 15,6 C 97 % 1009,6 hPa 0,0 l/m 0 min 0 min 45 W/m 0,0 km/h (0 Bft) 100,00 %
13.06.2020 06:26 16,2 C 15,6 C 15,6 C 97 % 1009,8 hPa 0,0 l/m 0 min 0 min 39 W/m 0,0 km/h (0 Bft) 100,00 %
13.06.2020 06:28 16,2 C 15,6 C 15,6 C 97 % 1009,9 hPa 0,0 l/m 0 min 0 min 38 W/m 0,0 km/h (0 Bft) 97,87 %
13.06.2020 06:30 16,2 C 15,6 C 15,6 C 97 % 1009,8 hPa 0,0 l/m 0 min 0 min 37 W/m 3,2 km/h (1 Bft) 97,87 %
13.06.2020 06:32 16,2 C 15,6 C 15,6 C 97 % 1009,7 hPa 0,0 l/m 0 min 0 min 39 W/m 0,0 km/h (0 Bft) 97,87 %
13.06.2020 06:34 16,2 C 15,6 C 15,6 C 97 % 1009,8 hPa 0,0 l/m 0 min 0 min 38 W/m 0,0 km/h (0 Bft) 97,87 %
13.06.2020 06:36 16,2 C 15,6 C 15,6 C 97 % 1009,9 hPa 0,0 l/m 0 min 0 min 39 W/m 0,0 km/h (0 Bft) 97,87 %
13.06.2020 06:38 16,2 C 15,6 C 15,6 C 97 % 1009,9 hPa 0,0 l/m 0 min 0 min 42 W/m 0,0 km/h (0 Bft) 97,83 %
13.06.2020 06:40 16,2 C 15,6 C 15,6 C 97 % 1009,8 hPa 0,0 l/m 0 min 0 min 44 W/m 0,0 km/h (0 Bft) 97,87 %
13.06.2020 06:42 16,3 C 15,6 C 15,6 C 97 % 1009,7 hPa 0,0 l/m 0 min 0 min 44 W/m 0,0 km/h (0 Bft) 95,74 %
13.06.2020 06:44 16,3 C 15,6 C 15,6 C 97 % 1009,7 hPa 0,0 l/m 0 min 0 min 46 W/m 0,0 km/h (0 Bft) 97,87 %
13.06.2020 06:46 16,3 C 15,6 C 15,6 C 97 % 1009,7 hPa 0,0 l/m 0 min 0 min 49 W/m 0,0 km/h (0 Bft) 100,00 %
13.06.2020 06:48 16,3 C 15,6 C 15,6 C 97 % 1009,8 hPa 0,0 l/m 0 min 0 min 49 W/m 0,0 km/h (0 Bft) 93,62 %
13.06.2020 06:50 16,3 C 15,6 C 15,6 C 97 % 1009,9 hPa 0,0 l/m 0 min 0 min 52 W/m 0,0 km/h (0 Bft) 95,65 %
13.06.2020 06:52 16,3 C 15,6 C 15,6 C 97 % 1009,9 hPa 0,0 l/m 0 min 0 min 54 W/m 3,2 km/h (1 Bft) 95,74 %
13.06.2020 06:54 16,3 C 15,6 C 15,6 C 97 % 1009,8 hPa 0,0 l/m 0 min 0 min 54 W/m 0,0 km/h (0 Bft) 93,62 %
13.06.2020 06:56 16,3 C 15,6 C 15,6 C 97 % 1009,8 hPa 0,0 l/m 0 min 0 min 53 W/m 0,0 km/h (0 Bft) 95,74 %
13.06.2020 06:58 16,3 C 15,6 C 15,6 C 97 % 1009,9 hPa 0,0 l/m 0 min 0 min 55 W/m 0,0 km/h (0 Bft) 93,62 %
13.06.2020 07:00 16,4 C 15,6 C 15,6 C 97 % 1010,0 hPa 0,0 l/m 0 min 0 min 55 W/m 0,0 km/h (0 Bft) 95,65 %
13.06.2020 07:02 16,4 C 16,1 C 16,1 C 97 % 1010,0 hPa 0,0 l/m 0 min 0 min 61 W/m 0,0 km/h (0 Bft) 95,74 %
13.06.2020 07:04 16,4 C 16,1 C 16,1 C 97 % 1010,1 hPa 0,0 l/m 0 min 0 min 66 W/m 0,0 km/h (0 Bft) 93,62 %
13.06.2020 07:06 16,4 C 16,1 C 16,1 C 97 % 1010,1 hPa 0,0 l/m 0 min 0 min 70 W/m 0,0 km/h (0 Bft) 91,49 %
13.06.2020 07:08 16,5 C 16,1 C 16,1 C 97 % 1010,1 hPa 0,0 l/m 0 min 0 min 70 W/m 3,2 km/h (1 Bft) 93,62 %
13.06.2020 07:10 16,5 C 16,1 C 16,1 C 97 % 1010,1 hPa 0,0 l/m 0 min 0 min 71 W/m 3,2 km/h (1 Bft) 89,36 %
13.06.2020 07:12 16,5 C 16,1 C 16,1 C 97 % 1010,1 hPa 0,0 l/m 0 min 0 min 76 W/m 6,4 km/h (2 Bft) 95,65 %
13.06.2020 07:14 16,5 C 16,1 C 16,1 C 97 % 1010,2 hPa 0,0 l/m 0 min 0 min 79 W/m 0,0 km/h (0 Bft) 93,62 %
13.06.2020 07:16 16,5 C 16,1 C 16,7 C 97 % 1010,2 hPa 0,0 l/m 0 min 0 min 84 W/m 3,2 km/h (1 Bft) 93,62 %
13.06.2020 07:18 16,6 C 16,7 C 16,7 C 97 % 1010,3 hPa 0,0 l/m 0 min 0 min 84 W/m 0,0 km/h (0 Bft) 95,74 %
13.06.2020 07:20 16,6 C 16,7 C 16,7 C 97 % 1010,3 hPa 0,0 l/m 0 min 0 min 81 W/m 6,4 km/h (2 Bft) 93,62 %
13.06.2020 07:22 16,6 C 16,7 C 16,7 C 97 % 1010,3 hPa 0,0 l/m 0 min 0 min 83 W/m 3,2 km/h (1 Bft) 93,62 %
13.06.2020 07:24 16,6 C 16,7 C 16,7 C 97 % 1010,3 hPa 0,0 l/m 0 min 0 min 88 W/m 3,2 km/h (1 Bft) 93,48 %
13.06.2020 07:26 16,7 C 16,7 C 16,7 C 97 % 1010,4 hPa 0,0 l/m 0 min 0 min 87 W/m 6,4 km/h (2 Bft) 93,62 %
13.06.2020 07:28 16,7 C 16,7 C 16,7 C 97 % 1010,3 hPa 0,0 l/m 0 min 0 min 85 W/m 0,0 km/h (0 Bft) 91,49 %
13.06.2020 07:30 16,7 C 16,7 C 16,7 C 98 % 1010,3 hPa 0,0 l/m 0 min 0 min 92 W/m 3,2 km/h (1 Bft) 91,49 %
13.06.2020 07:32 16,8 C 16,7 C 16,7 C 98 % 1010,3 hPa 0,0 l/m 0 min 0 min 101 W/m 3,2 km/h (1 Bft) 95,74 %
13.06.2020 07:34 16,8 C 16,7 C 16,7 C 98 % 1010,3 hPa 0,0 l/m 0 min 0 min 110 W/m 3,2 km/h (1 Bft) 95,74 %
13.06.2020 07:36 16,8 C 17,2 C 16,7 C 97 % 1010,4 hPa 0,0 l/m 0 min 0 min 116 W/m 3,2 km/h (1 Bft) 97,83 %
13.06.2020 07:38 16,9 C 17,2 C 17,2 C 97 % 1010,4 hPa 0,0 l/m 0 min 0 min 120 W/m 12,9 km/h (3 Bft) 93,62 %
13.06.2020 07:40 16,9 C 17,2 C 17,2 C 97 % 1010,4 hPa 0,0 l/m 0 min 0 min 123 W/m 6,4 km/h (2 Bft) 97,87 %
13.06.2020 07:42 17,0 C 17,2 C 17,2 C 98 % 1010,4 hPa 0,0 l/m 0 min 0 min 120 W/m 0,0 km/h (0 Bft) 95,74 %
13.06.2020 07:44 17,1 C 17,8 C 17,2 C 98 % 1010,4 hPa 0,0 l/m 0 min 0 min 111 W/m 3,2 km/h (1 Bft) 95,74 %
13.06.2020 07:46 17,1 C 17,2 C 17,2 C 98 % 1010,4 hPa 0,0 l/m 0 min 0 min 90 W/m 6,4 km/h (2 Bft) 95,74 %
13.06.2020 07:48 17,2 C 17,2 C 17,2 C 98 % 1010,5 hPa 0,0 l/m 0 min 0 min 72 W/m 0,0 km/h (0 Bft) 95,65 %
13.06.2020 07:50 17,2 C 17,2 C 17,2 C 98 % 1010,5 hPa 0,0 l/m 0 min 0 min 57 W/m 0,0 km/h (0 Bft) 97,87 %
13.06.2020 07:52 17,2 C 16,7 C 17,2 C 98 % 1010,5 hPa 0,0 l/m 0 min 0 min 45 W/m 0,0 km/h (0 Bft) 100,00 %
13.06.2020 07:54 17,2 C 17,2 C 16,7 C 97 % 1010,5 hPa 0,0 l/m 0 min 0 min 50 W/m 6,4 km/h (2 Bft) 100,00 %
13.06.2020 07:56 17,2 C 18,3 C 16,7 C 97 % 1010,5 hPa 0,0 l/m 0 min 0 min 55 W/m 0,0 km/h (0 Bft) 97,87 %
13.06.2020 07:58 17,2 C 20,0 C 16,7 C 97 % 1010,5 hPa 0,0 l/m 0 min 0 min 54 W/m 0,0 km/h (0 Bft) 100,00 %
13.06.2020 08:00 17,3 C 21,1 C 16,7 C 97 % 1010,5 hPa 0,0 l/m 0 min 0 min 56 W/m 3,2 km/h (1 Bft) 100,00 %
13.06.2020 08:02 17,3 C 21,1 C 16,7 C 97 % 1010,4 hPa 0,0 l/m 0 min 0 min 56 W/m 6,4 km/h (2 Bft) 95,74 %
13.06.2020 08:04 17,4 C 22,2 C 16,7 C 97 % 1010,5 hPa 0,0 l/m 0 min 0 min 56 W/m 0,0 km/h (0 Bft) 100,00 %
13.06.2020 08:06 17,4 C 22,8 C 16,7 C 97 % 1010,5 hPa 0,0 l/m 0 min 0 min 54 W/m 0,0 km/h (0 Bft) 100,00 %
13.06.2020 08:08 17,6 C 22,2 C 16,7 C 97 % 1010,5 hPa 0,0 l/m 0 min 0 min 54 W/m 0,0 km/h (0 Bft) 100,00 %
13.06.2020 08:10 17,7 C 23,3 C 16,7 C 97 % 1010,6 hPa 0,0 l/m 0 min 0 min 54 W/m 0,0 km/h (0 Bft) 100,00 %
13.06.2020 08:12 17,8 C 23,3 C 17,2 C 97 % 1010,6 hPa 0,0 l/m 0 min 0 min 56 W/m 0,0 km/h (0 Bft) 97,83 %
13.06.2020 08:14 17,9 C 23,3 C 17,2 C 97 % 1010,6 hPa 0,0 l/m 0 min 0 min 57 W/m 6,4 km/h (2 Bft) 100,00 %
13.06.2020 08:16 18,0 C 23,9 C 17,2 C 97 % 1010,6 hPa 0,0 l/m 0 min 0 min 58 W/m 3,2 km/h (1 Bft) 100,00 %
13.06.2020 08:18 18,2 C 23,3 C 17,2 C 97 % 1010,6 hPa 0,0 l/m 0 min 0 min 58 W/m 12,9 km/h (3 Bft) 100,00 %
13.06.2020 08:20 18,3 C 23,9 C 17,8 C 97 % 1010,6 hPa 0,0 l/m 0 min 0 min 56 W/m 0,0 km/h (0 Bft) 100,00 %
13.06.2020 08:22 18,4 C 23,9 C 17,8 C 97 % 1010,6 hPa 0,0 l/m 0 min 0 min 56 W/m 6,4 km/h (2 Bft) 97,87 %
13.06.2020 08:24 18,6 C 24,4 C 18,3 C 96 % 1010,5 hPa 0,0 l/m 0 min 0 min 56 W/m 0,0 km/h (0 Bft) 100,00 %
13.06.2020 08:26 18,7 C 25,0 C 21,1 C 96 % 1010,5 hPa 0,0 l/m 0 min 0 min 56 W/m 0,0 km/h (0 Bft) 100,00 %
13.06.2020 08:28 18,8 C 25,6 C 23,9 C 95 % 1010,5 hPa 0,0 l/m 0 min 0 min 58 W/m 0,0 km/h (0 Bft) 100,00 %
13.06.2020 08:30 19,0 C 26,1 C 26,7 C 95 % 1010,5 hPa 0,0 l/m 0 min 0 min 59 W/m 0,0 km/h (0 Bft) 100,00 %
13.06.2020 08:32 19,2 C 26,1 C 28,9 C 94 % 1010,6 hPa 0,0 l/m 0 min 0 min 61 W/m 0,0 km/h (0 Bft) 100,00 %
13.06.2020 08:34 19,3 C 25,6 C 30,0 C 94 % 1010,5 hPa 0,0 l/m 0 min 0 min 62 W/m 0,0 km/h (0 Bft) 100,00 %
13.06.2020 08:36 19,5 C 25,6 C 31,1 C 93 % 1010,5 hPa 0,0 l/m 0 min 0 min 64 W/m 3,2 km/h (1 Bft) 97,87 %
13.06.2020 08:38 19,7 C 25,6 C 30,6 C 92 % 1010,6 hPa 0,0 l/m 0 min 0 min 66 W/m 0,0 km/h (0 Bft) 100,00 %
13.06.2020 08:40 19,8 C 26,1 C 31,1 C 91 % 1010,6 hPa 0,0 l/m 0 min 0 min 69 W/m 0,0 km/h (0 Bft) 100,00 %
13.06.2020 08:42 19,9 C 25,6 C 31,1 C 91 % 1010,6 hPa 0,0 l/m 0 min 0 min 71 W/m 0,0 km/h (0 Bft) 97,87 %
13.06.2020 08:44 20,1 C 26,1 C 32,2 C 90 % 1010,6 hPa 0,0 l/m 0 min 0 min 73 W/m 0,0 km/h (0 Bft) 100,00 %
13.06.2020 08:46 20,3 C 26,1 C 32,2 C 88 % 1010,7 hPa 0,0 l/m 0 min 0 min 77 W/m 6,4 km/h (2 Bft) 100,00 %
13.06.2020 08:48 20,4 C 26,1 C 32,8 C 88 % 1010,7 hPa 0,0 l/m 0 min 0 min 80 W/m 0,0 km/h (0 Bft) 100,00 %
13.06.2020 08:50 20,6 C 25,6 C 32,2 C 86 % 1010,7 hPa 0,0 l/m 0 min 0 min 89 W/m 0,0 km/h (0 Bft) 100,00 %
13.06.2020 08:52 20,8 C 25,0 C 31,1 C 85 % 1010,7 hPa 0,0 l/m 0 min 0 min 105 W/m 3,2 km/h (1 Bft) 100,00 %
13.06.2020 08:54 20,9 C 25,6 C 31,7 C 84 % 1010,7 hPa 0,0 l/m 0 min 0 min 118 W/m 12,9 km/h (3 Bft) 100,00 %
13.06.2020 08:56 21,1 C 26,7 C 32,8 C 84 % 1010,7 hPa 0,0 l/m 0 min 0 min 145 W/m 12,9 km/h (3 Bft) 100,00 %
13.06.2020 08:58 21,2 C 25,0 C 30,6 C 82 % 1010,7 hPa 0,0 l/m 0 min 0 min 198 W/m 16,1 km/h (3 Bft) 100,00 %
13.06.2020 09:00 21,4 C 26,1 C 31,7 C 81 % 1010,7 hPa 0,0 l/m 0 min 0 min 235 W/m 12,9 km/h (3 Bft) 100,00 %
13.06.2020 09:02 21,5 C 26,7 C 32,2 C 81 % 1010,8 hPa 0,0 l/m 2 min 0 min 297 W/m 12,9 km/h (3 Bft) 100,00 %
13.06.2020 09:04 21,7 C 26,7 C 32,8 C 80 % 1010,8 hPa 0,0 l/m 2 min 0 min 276 W/m 19,3 km/h (3 Bft) 100,00 %
13.06.2020 09:06 21,8 C 26,7 C 33,3 C 80 % 1010,8 hPa 0,0 l/m 2 min 0 min 292 W/m 12,9 km/h (3 Bft) 100,00 %
13.06.2020 09:08 21,9 C 26,7 C 33,9 C 81 % 1010,8 hPa 0,0 l/m 2 min 0 min 336 W/m 6,4 km/h (2 Bft) 100,00 %
13.06.2020 09:10 22,0 C 26,7 C 34,4 C 80 % 1010,8 hPa 0,0 l/m 2 min 0 min 373 W/m 3,2 km/h (1 Bft) 100,00 %
13.06.2020 09:12 22,1 C 27,2 C 35,0 C 80 % 1010,9 hPa 0,0 l/m 2 min 0 min 417 W/m 3,2 km/h (1 Bft) 100,00 %
13.06.2020 09:14 22,2 C 26,7 C 34,4 C 81 % 1010,8 hPa 0,0 l/m 2 min 0 min 456 W/m 12,9 km/h (3 Bft) 97,87 %
13.06.2020 09:16 22,3 C 26,7 C 35,0 C 80 % 1010,8 hPa 0,0 l/m 2 min 0 min 489 W/m 6,4 km/h (2 Bft) 100,00 %
13.06.2020 09:18 22,4 C 26,1 C 33,3 C 80 % 1010,8 hPa 0,0 l/m 2 min 0 min 518 W/m 12,9 km/h (3 Bft) 100,00 %
13.06.2020 09:20 22,6 C 26,1 C 34,4 C 80 % 1010,8 hPa 0,0 l/m 2 min 0 min 537 W/m 9,7 km/h (2 Bft) 100,00 %
13.06.2020 09:22 22,7 C 26,1 C 33,3 C 79 % 1010,8 hPa 0,0 l/m 2 min 0 min 547 W/m 12,9 km/h (3 Bft) 97,83 %
13.06.2020 09:24 22,8 C 26,1 C 33,9 C 80 % 1010,9 hPa 0,0 l/m 2 min 0 min 563 W/m 16,1 km/h (3 Bft) 97,87 %
13.06.2020 09:26 22,9 C 26,7 C 35,0 C 78 % 1010,8 hPa 0,0 l/m 2 min 0 min 576 W/m 9,7 km/h (2 Bft) 97,87 %
13.06.2020 09:28 22,9 C 27,2 C 35,0 C 79 % 1010,8 hPa 0,0 l/m 2 min 0 min 578 W/m 3,2 km/h (1 Bft) 97,87 %
13.06.2020 09:30 23,1 C 27,2 C 35,0 C 78 % 1010,9 hPa 0,0 l/m 2 min 0 min 575 W/m 12,9 km/h (3 Bft) 95,74 %
13.06.2020 09:32 23,1 C 27,2 C 35,6 C 77 % 1010,8 hPa 0,0 l/m 2 min 0 min 578 W/m 12,9 km/h (3 Bft) 97,87 %
13.06.2020 09:34 23,1 C 27,2 C 35,6 C 76 % 1010,8 hPa 0,0 l/m 2 min 0 min 584 W/m 6,4 km/h (2 Bft) 97,83 %
13.06.2020 09:36 23,2 C 27,8 C 35,6 C 76 % 1010,8 hPa 0,0 l/m 2 min 0 min 588 W/m 3,2 km/h (1 Bft) 97,87 %
13.06.2020 09:38 23,3 C 28,3 C 36,7 C 77 % 1010,8 hPa 0,0 l/m 2 min 0 min 591 W/m 0,0 km/h (0 Bft) 97,87 %
13.06.2020 09:40 23,4 C 27,8 C 37,8 C 77 % 1010,8 hPa 0,0 l/m 2 min 0 min 601 W/m 6,4 km/h (2 Bft) 97,87 %
13.06.2020 09:42 23,4 C 27,2 C 37,2 C 75 % 1010,9 hPa 0,0 l/m 2 min 0 min 609 W/m 12,9 km/h (3 Bft) 95,74 %
13.06.2020 09:44 23,5 C 26,7 C 35,6 C 74 % 1010,9 hPa 0,0 l/m 2 min 0 min 616 W/m 6,4 km/h (2 Bft) 95,65 %
13.06.2020 09:46 23,5 C 27,2 C 35,6 C 74 % 1010,9 hPa 0,0 l/m 2 min 0 min 623 W/m 6,4 km/h (2 Bft) 95,74 %
13.06.2020 09:48 23,6 C 27,2 C 36,1 C 74 % 1010,8 hPa 0,0 l/m 2 min 0 min 626 W/m 3,2 km/h (1 Bft) 93,62 %
13.06.2020 09:50 23,6 C 27,8 C 37,2 C 74 % 1010,8 hPa 0,0 l/m 2 min 0 min 632 W/m 3,2 km/h (1 Bft) 95,74 %
13.06.2020 09:52 23,7 C 28,3 C 37,2 C 74 % 1010,9 hPa 0,0 l/m 2 min 0 min 639 W/m 3,2 km/h (1 Bft) 95,56 %
13.06.2020 09:54 23,7 C 27,8 C 36,1 C 73 % 1010,9 hPa 0,0 l/m 2 min 0 min 639 W/m 12,9 km/h (3 Bft) 95,74 %
13.06.2020 09:56 23,8 C 27,8 C 37,2 C 74 % 1010,9 hPa 0,0 l/m 2 min 0 min 641 W/m 12,9 km/h (3 Bft) 93,62 %
13.06.2020 09:58 23,8 C 28,3 C 37,8 C 72 % 1011,0 hPa 0,0 l/m 2 min 0 min 658 W/m 6,4 km/h (2 Bft) 95,74 %
13.06.2020 10:00 23,9 C 27,8 C 37,8 C 72 % 1011,0 hPa 0,0 l/m 2 min 0 min 668 W/m 9,7 km/h (2 Bft) 95,74 %
13.06.2020 10:02 23,9 C 27,2 C 37,2 C 71 % 1011,1 hPa 0,0 l/m 2 min 0 min 677 W/m 16,1 km/h (3 Bft) 95,83 %
13.06.2020 10:04 23,9 C 27,2 C 35,6 C 70 % 1011,0 hPa 0,0 l/m 2 min 0 min 683 W/m 16,1 km/h (3 Bft) 95,65 %
13.06.2020 10:06 24,0 C 28,3 C 35,6 C 71 % 1011,0 hPa 0,0 l/m 2 min 0 min 688 W/m 9,7 km/h (2 Bft) 95,74 %
13.06.2020 10:08 24,1 C 28,9 C 36,7 C 72 % 1011,0 hPa 0,0 l/m 2 min 0 min 696 W/m 6,4 km/h (2 Bft) 97,87 %
13.06.2020 10:10 24,1 C 28,9 C 37,2 C 71 % 1011,0 hPa 0,0 l/m 2 min 0 min 712 W/m 12,9 km/h (3 Bft) 97,87 %
13.06.2020 10:12 24,2 C 27,2 C 35,0 C 70 % 1011,0 hPa 0,0 l/m 2 min 0 min 677 W/m 12,9 km/h (3 Bft) 95,74 %
13.06.2020 10:14 24,2 C 26,7 C 33,9 C 70 % 1011,0 hPa 0,0 l/m 0 min 0 min 285 W/m 12,9 km/h (3 Bft) 97,87 %
13.06.2020 10:16 24,2 C 27,2 C 33,9 C 70 % 1011,0 hPa 0,0 l/m 2 min 0 min 436 W/m 9,7 km/h (2 Bft) 95,65 %
13.06.2020 10:18 24,2 C 26,1 C 32,2 C 69 % 1011,0 hPa 0,0 l/m 2 min 0 min 456 W/m 12,9 km/h (3 Bft) 97,87 %
13.06.2020 10:20 24,2 C 25,6 C 30,6 C 68 % 1011,0 hPa 0,0 l/m 0 min 0 min 331 W/m 19,3 km/h (3 Bft) 97,87 %
13.06.2020 10:22 24,2 C 24,4 C 28,9 C 68 % 1011,0 hPa 0,0 l/m 0 min 0 min 300 W/m 12,9 km/h (3 Bft) 93,62 %
13.06.2020 10:24 24,2 C 26,1 C 31,1 C 68 % 1011,0 hPa 0,0 l/m 2 min 0 min 378 W/m 16,1 km/h (3 Bft) 97,87 %
13.06.2020 10:26 24,2 C 27,8 C 33,3 C 69 % 1011,0 hPa 0,0 l/m 2 min 0 min 754 W/m 12,9 km/h (3 Bft) 97,87 %
13.06.2020 10:28 24,2 C 28,3 C 34,4 C 69 % 1011,0 hPa 0,0 l/m 2 min 0 min 746 W/m 16,1 km/h (3 Bft) 97,83 %
13.06.2020 10:30 24,2 C 28,3 C 35,6 C 69 % 1011,0 hPa 0,0 l/m 2 min 0 min 745 W/m 9,7 km/h (2 Bft) 95,74 %
13.06.2020 10:32 24,3 C 28,9 C 36,7 C 69 % 1011,0 hPa 0,0 l/m 2 min 0 min 756 W/m 3,2 km/h (1 Bft) 97,92 %
13.06.2020 10:34 24,3 C 28,9 C 36,7 C 69 % 1011,0 hPa 0,0 l/m 2 min 0 min 771 W/m 12,9 km/h (3 Bft) 97,87 %
13.06.2020 10:36 24,4 C 29,4 C 37,2 C 69 % 1010,9 hPa 0,0 l/m 2 min 0 min 788 W/m 12,9 km/h (3 Bft) 97,87 %
13.06.2020 10:38 24,4 C 29,4 C 36,7 C 68 % 1010,9 hPa 0,0 l/m 2 min 0 min 809 W/m 6,4 km/h (2 Bft) 100,00 %
13.06.2020 10:40 24,6 C 29,4 C 37,2 C 69 % 1010,9 hPa 0,0 l/m 2 min 0 min 819 W/m 16,1 km/h (3 Bft) 97,83 %
13.06.2020 10:42 24,6 C 28,9 C 36,7 C 69 % 1010,9 hPa 0,0 l/m 2 min 0 min 853 W/m 9,7 km/h (2 Bft) 97,87 %
13.06.2020 10:44 24,7 C 29,4 C 36,7 C 68 % 1011,0 hPa 0,0 l/m 2 min 0 min 812 W/m 12,9 km/h (3 Bft) 100,00 %
13.06.2020 10:46 24,8 C 28,9 C 36,1 C 67 % 1011,0 hPa 0,0 l/m 2 min 0 min 803 W/m 22,5 km/h (4 Bft) 97,87 %
13.06.2020 10:48 24,8 C 29,4 C 36,1 C 67 % 1011,0 hPa 0,0 l/m 2 min 0 min 819 W/m 16,1 km/h (3 Bft) 97,87 %
13.06.2020 10:50 24,9 C 29,4 C 36,1 C 66 % 1011,0 hPa 0,0 l/m 2 min 0 min 827 W/m 9,7 km/h (2 Bft) 97,83 %
13.06.2020 10:52 24,9 C 29,4 C 36,1 C 66 % 1011,0 hPa 0,0 l/m 2 min 0 min 823 W/m 9,7 km/h (2 Bft) 95,74 %
13.06.2020 10:54 25,0 C 30,0 C 37,2 C 67 % 1011,0 hPa 0,0 l/m 2 min 0 min 809 W/m 3,2 km/h (1 Bft) 97,87 %
13.06.2020 10:56 25,1 C 30,0 C 37,8 C 66 % 1011,0 hPa 0,0 l/m 2 min 0 min 805 W/m 12,9 km/h (3 Bft) 97,87 %
13.06.2020 10:58 25,2 C 30,0 C 38,9 C 65 % 1011,0 hPa 0,0 l/m 2 min 0 min 806 W/m 6,4 km/h (2 Bft) 97,87 %
13.06.2020 11:00 25,2 C 30,0 C 37,8 C 65 % 1011,0 hPa 0,0 l/m 2 min 0 min 802 W/m 6,4 km/h (2 Bft) 95,74 %
13.06.2020 11:02 25,2 C 30,0 C 37,8 C 65 % 1011,0 hPa 0,0 l/m 2 min 0 min 799 W/m 19,3 km/h (3 Bft) 97,87 %
13.06.2020 11:04 25,3 C 29,4 C 37,8 C 65 % 1011,0 hPa 0,0 l/m 2 min 0 min 811 W/m 19,3 km/h (3 Bft) 97,87 %
13.06.2020 11:06 25,3 C 29,4 C 38,3 C 63 % 1011,0 hPa 0,0 l/m 2 min 0 min 816 W/m 25,7 km/h (4 Bft) 97,87 %
13.06.2020 11:08 25,4 C 28,9 C 35,6 C 63 % 1010,9 hPa 0,0 l/m 2 min 0 min 821 W/m 19,3 km/h (3 Bft) 97,87 %
13.06.2020 11:10 25,4 C 29,4 C 36,1 C 64 % 1011,0 hPa 0,0 l/m 2 min 0 min 828 W/m 6,4 km/h (2 Bft) 97,87 %
13.06.2020 11:12 25,4 C 29,4 C 34,4 C 64 % 1010,9 hPa 0,0 l/m 2 min 0 min 832 W/m 16,1 km/h (3 Bft) 97,87 %
13.06.2020 11:14 25,5 C 29,4 C 31,1 C 63 % 1010,9 hPa 0,0 l/m 2 min 0 min 847 W/m 6,4 km/h (2 Bft) 97,83 %
13.06.2020 11:16 25,6 C 30,0 C 30,0 C 63 % 1010,9 hPa 0,0 l/m 2 min 0 min 867 W/m 6,4 km/h (2 Bft) 95,74 %
13.06.2020 11:18 25,6 C 30,6 C 29,4 C 64 % 1010,8 hPa 0,0 l/m 2 min 0 min 875 W/m 6,4 km/h (2 Bft) 97,87 %
13.06.2020 11:20 25,6 C 29,4 C 30,0 C 63 % 1010,9 hPa 0,0 l/m 2 min 0 min 780 W/m 22,5 km/h (4 Bft) 95,74 %
13.06.2020 11:22 25,7 C 30,0 C 30,6 C 64 % 1010,8 hPa 0,0 l/m 2 min 0 min 716 W/m 12,9 km/h (3 Bft) 97,87 %
13.06.2020 11:24 25,7 C 30,0 C 30,0 C 63 % 1010,8 hPa 0,0 l/m 2 min 0 min 830 W/m 12,9 km/h (3 Bft) 97,87 %
13.06.2020 11:26 25,7 C 30,0 C 30,0 C 64 % 1010,9 hPa 0,0 l/m 2 min 0 min 850 W/m 6,4 km/h (2 Bft) 97,83 %
13.06.2020 11:28 25,7 C 29,4 C 29,4 C 63 % 1010,8 hPa 0,0 l/m 2 min 0 min 851 W/m 12,9 km/h (3 Bft) 97,87 %
13.06.2020 11:30 25,8 C 30,0 C 28,9 C 64 % 1010,8 hPa 0,0 l/m 2 min 0 min 854 W/m 6,4 km/h (2 Bft) 97,87 %
13.06.2020 11:32 25,8 C 30,0 C 28,3 C 64 % 1010,9 hPa 0,0 l/m 2 min 0 min 860 W/m 12,9 km/h (3 Bft) 97,92 %
13.06.2020 11:34 25,8 C 29,4 C 28,3 C 64 % 1010,9 hPa 0,0 l/m 2 min 0 min 859 W/m 16,1 km/h (3 Bft) 97,87 %
13.06.2020 11:36 25,9 C 30,6 C 27,8 C 65 % 1010,9 hPa 0,0 l/m 2 min 0 min 867 W/m 16,1 km/h (3 Bft) 97,87 %
13.06.2020 11:38 25,9 C 31,1 C 27,8 C 64 % 1010,9 hPa 0,0 l/m 2 min 0 min 868 W/m 12,9 km/h (3 Bft) 97,87 %
13.06.2020 11:40 26,0 C 31,7 C 27,8 C 67 % 1010,9 hPa 0,0 l/m 2 min 0 min 869 W/m 3,2 km/h (1 Bft) 97,83 %
13.06.2020 11:42 26,1 C 31,1 C 27,8 C 64 % 1010,9 hPa 0,0 l/m 2 min 0 min 874 W/m 16,1 km/h (3 Bft) 97,87 %
13.06.2020 11:44 26,1 C 30,0 C 27,2 C 64 % 1010,8 hPa 0,0 l/m 2 min 0 min 878 W/m 16,1 km/h (3 Bft) 97,87 %
13.06.2020 11:46 26,2 C 31,1 C 27,8 C 67 % 1010,9 hPa 0,0 l/m 2 min 0 min 885 W/m 6,4 km/h (2 Bft) 97,87 %
13.06.2020 11:48 26,2 C 31,1 C 29,4 C 63 % 1010,8 hPa 0,0 l/m 2 min 0 min 894 W/m 12,9 km/h (3 Bft) 100,00 %
13.06.2020 11:50 26,2 C 31,1 C 31,1 C 62 % 1010,9 hPa 0,0 l/m 2 min 0 min 897 W/m 12,9 km/h (3 Bft) 100,00 %
13.06.2020 11:52 26,2 C 30,6 C 32,8 C 62 % 1010,8 hPa 0,0 l/m 2 min 0 min 894 W/m 12,9 km/h (3 Bft) 100,00 %
13.06.2020 11:54 26,2 C 30,0 C 31,1 C 63 % 1010,9 hPa 0,0 l/m 2 min 0 min 892 W/m 19,3 km/h (3 Bft) 97,87 %
13.06.2020 11:56 26,2 C 29,4 C 28,9 C 62 % 1010,9 hPa 0,0 l/m 2 min 0 min 901 W/m 16,1 km/h (3 Bft) 97,87 %
13.06.2020 11:58 26,2 C 31,1 C 28,3 C 63 % 1010,8 hPa 0,0 l/m 2 min 0 min 919 W/m 6,4 km/h (2 Bft) 97,87 %
13.06.2020 12:00 26,2 C 30,6 C 30,0 C 63 % 1010,8 hPa 0,0 l/m 2 min 0 min 936 W/m 12,9 km/h (3 Bft) 97,87 %
13.06.2020 12:02 26,3 C 32,2 C 31,1 C 64 % 1010,8 hPa 0,0 l/m 2 min 0 min 967 W/m 0,0 km/h (0 Bft) 97,87 %
13.06.2020 12:04 26,3 C 33,3 C 31,1 C 64 % 1010,7 hPa 0,0 l/m 2 min 0 min 1008 W/m 6,4 km/h (2 Bft) 97,83 %
13.06.2020 12:08 26,5 C 32,8 C 28,9 C 62 % 1010,8 hPa 0,0 l/m 4 min 0 min 1065 W/m 16,1 km/h (3 Bft) 96,81 %
13.06.2020 12:10 26,6 C 32,2 C 28,3 C 61 % 1010,8 hPa 0,0 l/m 2 min 0 min 1062 W/m 16,1 km/h (3 Bft) 100,00 %
13.06.2020 12:12 26,6 C 31,7 C 28,3 C 62 % 1010,8 hPa 0,0 l/m 2 min 0 min 846 W/m 12,9 km/h (3 Bft) 97,87 %
13.06.2020 12:14 26,7 C 30,0 C 27,8 C 61 % 1010,8 hPa 0,0 l/m 0 min 0 min 427 W/m 12,9 km/h (3 Bft) 97,87 %
13.06.2020 12:16 26,7 C 29,4 C 27,8 C 61 % 1010,9 hPa 0,0 l/m 0 min 0 min 425 W/m 19,3 km/h (3 Bft) 97,83 %
13.06.2020 12:18 26,7 C 30,0 C 27,8 C 60 % 1010,9 hPa 0,0 l/m 0 min 0 min 425 W/m 12,9 km/h (3 Bft) 97,87 %
13.06.2020 12:20 26,7 C 28,9 C 27,8 C 60 % 1010,9 hPa 0,0 l/m 0 min 0 min 420 W/m 12,9 km/h (3 Bft) 97,87 %
13.06.2020 12:22 26,6 C 27,2 C 26,7 C 59 % 1010,9 hPa 0,0 l/m 0 min 0 min 360 W/m 16,1 km/h (3 Bft) 95,74 %
13.06.2020 12:24 26,6 C 26,7 C 26,1 C 59 % 1010,9 hPa 0,0 l/m 0 min 0 min 374 W/m 22,5 km/h (4 Bft) 97,87 %
13.06.2020 12:26 26,5 C 26,7 C 26,1 C 60 % 1010,9 hPa 0,0 l/m 0 min 0 min 379 W/m 16,1 km/h (3 Bft) 97,83 %
13.06.2020 12:28 26,4 C 26,7 C 25,6 C 60 % 1010,9 hPa 0,0 l/m 0 min 0 min 433 W/m 19,3 km/h (3 Bft) 97,87 %
13.06.2020 12:30 26,2 C 26,1 C 25,6 C 60 % 1010,9 hPa 0,0 l/m 2 min 0 min 456 W/m 16,1 km/h (3 Bft) 97,87 %
13.06.2020 12:32 26,1 C 26,7 C 25,6 C 60 % 1010,9 hPa 0,0 l/m 2 min 0 min 470 W/m 12,9 km/h (3 Bft) 95,74 %
13.06.2020 12:34 26,0 C 26,7 C 25,6 C 60 % 1011,0 hPa 0,0 l/m 2 min 0 min 450 W/m 16,1 km/h (3 Bft) 97,87 %
13.06.2020 12:36 25,9 C 26,1 C 25,6 C 59 % 1010,9 hPa 0,0 l/m 0 min 0 min 384 W/m 19,3 km/h (3 Bft) 97,87 %
13.06.2020 12:38 25,8 C 26,7 C 25,6 C 60 % 1010,9 hPa 0,0 l/m 0 min 0 min 385 W/m 12,9 km/h (3 Bft) 100,00 %
13.06.2020 12:40 25,7 C 26,1 C 25,6 C 60 % 1010,9 hPa 0,0 l/m 0 min 0 min 398 W/m 16,1 km/h (3 Bft) 97,87 %
13.06.2020 12:42 25,6 C 26,1 C 25,6 C 61 % 1010,9 hPa 0,0 l/m 0 min 0 min 406 W/m 19,3 km/h (3 Bft) 100,00 %
13.06.2020 12:44 25,6 C 26,1 C 25,6 C 61 % 1011,0 hPa 0,0 l/m 0 min 0 min 341 W/m 16,1 km/h (3 Bft) 100,00 %
13.06.2020 12:46 25,5 C 25,6 C 25,0 C 61 % 1010,9 hPa 0,0 l/m 0 min 0 min 304 W/m 12,9 km/h (3 Bft) 100,00 %
13.06.2020 12:48 25,4 C 25,6 C 24,4 C 62 % 1010,9 hPa 0,0 l/m 0 min 0 min 275 W/m 12,9 km/h (3 Bft) 100,00 %
13.06.2020 12:50 25,4 C 25,0 C 24,4 C 63 % 1010,9 hPa 0,0 l/m 0 min 0 min 262 W/m 16,1 km/h (3 Bft) 100,00 %
13.06.2020 12:52 25,3 C 25,0 C 24,4 C 63 % 1010,9 hPa 0,0 l/m 0 min 0 min 262 W/m 16,1 km/h (3 Bft) 100,00 %
13.06.2020 12:54 25,2 C 25,0 C 23,9 C 62 % 1010,9 hPa 0,0 l/m 0 min 0 min 277 W/m 16,1 km/h (3 Bft) 97,87 %
13.06.2020 12:56 25,2 C 25,0 C 23,9 C 62 % 1010,9 hPa 0,0 l/m 0 min 0 min 296 W/m 16,1 km/h (3 Bft) 97,87 %
13.06.2020 12:58 25,2 C 25,0 C 23,9 C 61 % 1011,0 hPa 0,0 l/m 0 min 0 min 308 W/m 16,1 km/h (3 Bft) 95,74 %
13.06.2020 13:00 25,1 C 25,0 C 23,9 C 61 % 1011,0 hPa 0,0 l/m 0 min 0 min 325 W/m 19,3 km/h (3 Bft) 97,87 %
13.06.2020 13:02 25,0 C 25,0 C 23,9 C 61 % 1011,0 hPa 0,0 l/m 0 min 0 min 344 W/m 19,3 km/h (3 Bft) 96,23 %
13.06.2020 13:04 24,9 C 25,6 C 23,9 C 61 % 1011,0 hPa 0,0 l/m 0 min 0 min 359 W/m 6,4 km/h (2 Bft) 97,87 %
13.06.2020 13:06 24,9 C 25,6 C 23,9 C 62 % 1011,0 hPa 0,0 l/m 0 min 0 min 382 W/m 12,9 km/h (3 Bft) 95,74 %
13.06.2020 13:08 24,9 C 27,2 C 24,4 C 62 % 1011,0 hPa 0,0 l/m 0 min 0 min 424 W/m 12,9 km/h (3 Bft) 95,65 %
13.06.2020 13:10 24,9 C 28,3 C 25,0 C 62 % 1011,0 hPa 0,0 l/m 0 min 0 min 424 W/m 12,9 km/h (3 Bft) 97,87 %
13.06.2020 13:12 24,9 C 28,9 C 25,6 C 62 % 1011,0 hPa 0,0 l/m 0 min 0 min 452 W/m 16,1 km/h (3 Bft) 97,87 %
13.06.2020 13:14 25,0 C 29,4 C 26,1 C 63 % 1010,9 hPa 0,0 l/m 2 min 0 min 1036 W/m 9,7 km/h (2 Bft) 97,87 %
13.06.2020 13:16 25,1 C 28,9 C 26,1 C 63 % 1010,9 hPa 0,0 l/m 2 min 0 min 805 W/m 12,9 km/h (3 Bft) 97,87 %
13.06.2020 13:18 25,2 C 27,2 C 25,6 C 61 % 1011,0 hPa 0,0 l/m 0 min 0 min 365 W/m 22,5 km/h (4 Bft) 97,87 %
13.06.2020 13:20 25,2 C 26,1 C 25,0 C 61 % 1011,0 hPa 0,0 l/m 0 min 0 min 352 W/m 16,1 km/h (3 Bft) 97,83 %
13.06.2020 13:22 25,2 C 26,1 C 25,0 C 62 % 1011,0 hPa 0,0 l/m 0 min 0 min 370 W/m 12,9 km/h (3 Bft) 97,87 %
13.06.2020 13:24 25,2 C 26,1 C 25,0 C 61 % 1011,0 hPa 0,0 l/m 0 min 0 min 389 W/m 19,3 km/h (3 Bft) 97,87 %
13.06.2020 13:26 25,2 C 26,7 C 25,0 C 61 % 1011,0 hPa 0,0 l/m 0 min 0 min 422 W/m 12,9 km/h (3 Bft) 97,87 %
13.06.2020 13:28 25,2 C 27,8 C 25,6 C 62 % 1011,0 hPa 0,0 l/m 2 min 0 min 462 W/m 9,7 km/h (2 Bft) 97,87 %
13.06.2020 13:30 25,2 C 29,4 C 26,7 C 62 % 1011,1 hPa 0,0 l/m 2 min 0 min 545 W/m 16,1 km/h (3 Bft) 97,87 %
13.06.2020 13:32 25,2 C 28,9 C 26,1 C 60 % 1011,0 hPa 0,0 l/m 2 min 0 min 580 W/m 12,9 km/h (3 Bft) 97,22 %
13.06.2020 13:34 25,3 C 31,7 C 27,2 C 63 % 1011,0 hPa 0,0 l/m 2 min 0 min 828 W/m 19,3 km/h (3 Bft) 97,83 %
13.06.2020 13:36 25,4 C 32,8 C 28,9 C 60 % 1011,0 hPa 0,0 l/m 2 min 0 min 875 W/m 19,3 km/h (3 Bft) 97,87 %
13.06.2020 13:38 25,6 C 32,8 C 31,1 C 59 % 1011,0 hPa 0,0 l/m 2 min 0 min 1207 W/m 16,1 km/h (3 Bft) 98,31 %
13.06.2020 13:40 25,7 C 32,8 C 31,7 C 59 % 1011,0 hPa 0,0 l/m 2 min 0 min 1167 W/m 12,9 km/h (3 Bft) 97,14 %
13.06.2020 13:42 25,8 C 33,3 C 32,8 C 59 % 1011,0 hPa 0,0 l/m 2 min 0 min 1206 W/m 16,1 km/h (3 Bft) 95,74 %
13.06.2020 13:44 25,9 C 31,7 C 31,7 C 59 % 1011,0 hPa 0,0 l/m 2 min 0 min 875 W/m 19,3 km/h (3 Bft) 97,87 %
13.06.2020 13:46 26,1 C 31,7 C 31,1 C 58 % 1011,1 hPa 0,0 l/m 2 min 0 min 1080 W/m 19,3 km/h (3 Bft) 95,65 %
13.06.2020 13:48 26,1 C 29,4 C 28,9 C 55 % 1011,1 hPa 0,0 l/m 2 min 0 min 484 W/m 16,1 km/h (3 Bft) 95,74 %
13.06.2020 13:50 26,2 C 28,3 C 27,2 C 55 % 1011,1 hPa 0,0 l/m 2 min 0 min 466 W/m 19,3 km/h (3 Bft) 100,00 %
13.06.2020 13:52 26,2 C 29,4 C 27,2 C 57 % 1011,2 hPa 0,0 l/m 2 min 0 min 554 W/m 12,9 km/h (3 Bft) 100,00 %
13.06.2020 13:54 26,2 C 28,9 C 27,2 C 56 % 1011,2 hPa 0,0 l/m 2 min 0 min 610 W/m 6,4 km/h (2 Bft) 97,92 %
13.06.2020 13:56 26,3 C 28,9 C 26,7 C 57 % 1011,2 hPa 0,0 l/m 2 min 0 min 571 W/m 6,4 km/h (2 Bft) 97,83 %
13.06.2020 13:58 26,3 C 29,4 C 26,7 C 57 % 1011,2 hPa 0,0 l/m 2 min 0 min 538 W/m 9,7 km/h (2 Bft) 97,87 %
13.06.2020 14:00 26,3 C 28,9 C 26,7 C 57 % 1011,2 hPa 0,0 l/m 2 min 0 min 489 W/m 22,5 km/h (4 Bft) 100,00 %
13.06.2020 14:02 26,4 C 28,3 C 26,7 C 57 % 1011,2 hPa 0,0 l/m 2 min 0 min 474 W/m 12,9 km/h (3 Bft) 95,83 %
13.06.2020 14:04 26,4 C 27,8 C 26,1 C 56 % 1011,2 hPa 0,0 l/m 0 min 0 min 382 W/m 6,4 km/h (2 Bft) 97,87 %
13.06.2020 14:06 26,4 C 27,2 C 26,1 C 57 % 1011,1 hPa 0,0 l/m 0 min 0 min 361 W/m 12,9 km/h (3 Bft) 95,74 %
13.06.2020 14:08 26,4 C 27,2 C 26,1 C 57 % 1011,2 hPa 0,0 l/m 0 min 0 min 359 W/m 16,1 km/h (3 Bft) 97,83 %
13.06.2020 14:10 26,4 C 26,7 C 25,6 C 57 % 1011,1 hPa 0,0 l/m 0 min 0 min 328 W/m 12,9 km/h (3 Bft) 97,87 %
13.06.2020 14:12 26,4 C 26,7 C 25,6 C 56 % 1011,1 hPa 0,0 l/m 0 min 0 min 296 W/m 6,4 km/h (2 Bft) 97,87 %
13.06.2020 14:14 26,4 C 26,1 C 25,0 C 56 % 1011,1 hPa 0,0 l/m 0 min 0 min 257 W/m 19,3 km/h (3 Bft) 95,74 %
13.06.2020 14:16 26,3 C 25,6 C 25,0 C 56 % 1011,2 hPa 0,0 l/m 0 min 0 min 230 W/m 19,3 km/h (3 Bft) 95,74 %
13.06.2020 14:18 26,3 C 25,0 C 24,4 C 56 % 1011,2 hPa 0,0 l/m 0 min 0 min 197 W/m 12,9 km/h (3 Bft) 95,74 %
13.06.2020 14:20 26,2 C 25,0 C 24,4 C 56 % 1011,2 hPa 0,0 l/m 0 min 0 min 178 W/m 6,4 km/h (2 Bft) 97,83 %
13.06.2020 14:22 26,2 C 24,4 C 24,4 C 56 % 1011,2 hPa 0,0 l/m 0 min 0 min 165 W/m 12,9 km/h (3 Bft) 97,87 %
13.06.2020 14:24 26,1 C 24,4 C 23,9 C 56 % 1011,2 hPa 0,0 l/m 0 min 0 min 148 W/m 16,1 km/h (3 Bft) 95,74 %
13.06.2020 14:26 26,0 C 23,9 C 23,9 C 56 % 1011,2 hPa 0,0 l/m 0 min 0 min 136 W/m 12,9 km/h (3 Bft) 95,74 %
13.06.2020 14:28 25,9 C 23,9 C 23,9 C 56 % 1011,1 hPa 0,0 l/m 0 min 0 min 133 W/m 6,4 km/h (2 Bft) 93,62 %
13.06.2020 14:30 25,8 C 23,9 C 23,3 C 56 % 1011,1 hPa 0,0 l/m 0 min 0 min 129 W/m 6,4 km/h (2 Bft) 95,74 %
13.06.2020 14:32 25,7 C 23,9 C 23,3 C 57 % 1011,2 hPa 0,0 l/m 0 min 0 min 126 W/m 12,9 km/h (3 Bft) 95,74 %
13.06.2020 14:34 25,6 C 23,9 C 23,3 C 57 % 1011,2 hPa 0,0 l/m 0 min 0 min 132 W/m 12,9 km/h (3 Bft) 97,87 %
13.06.2020 14:36 25,5 C 23,9 C 23,3 C 57 % 1011,2 hPa 0,0 l/m 0 min 0 min 137 W/m 12,9 km/h (3 Bft) 95,74 %
13.06.2020 14:38 25,4 C 23,9 C 23,3 C 58 % 1011,2 hPa 0,0 l/m 0 min 0 min 139 W/m 6,4 km/h (2 Bft) 95,74 %
13.06.2020 14:40 25,4 C 24,4 C 23,3 C 59 % 1011,2 hPa 0,0 l/m 0 min 0 min 141 W/m 12,9 km/h (3 Bft) 95,74 %
13.06.2020 14:42 25,3 C 24,4 C 23,3 C 58 % 1011,1 hPa 0,0 l/m 0 min 0 min 148 W/m 6,4 km/h (2 Bft) 93,62 %
13.06.2020 14:44 25,2 C 24,4 C 23,3 C 58 % 1011,1 hPa 0,0 l/m 0 min 0 min 155 W/m 12,9 km/h (3 Bft) 95,65 %
13.06.2020 14:46 25,2 C 24,4 C 23,3 C 59 % 1011,1 hPa 0,0 l/m 0 min 0 min 166 W/m 19,3 km/h (3 Bft) 93,62 %
13.06.2020 14:48 25,1 C 24,4 C 23,3 C 59 % 1011,1 hPa 0,0 l/m 0 min 0 min 177 W/m 6,4 km/h (2 Bft) 93,62 %
13.06.2020 14:50 25,1 C 24,4 C 23,3 C 59 % 1011,1 hPa 0,0 l/m 0 min 0 min 192 W/m 12,9 km/h (3 Bft) 95,74 %
13.06.2020 14:52 25,0 C 24,4 C 23,9 C 60 % 1011,1 hPa 0,0 l/m 0 min 0 min 212 W/m 6,4 km/h (2 Bft) 95,74 %
13.06.2020 14:54 24,9 C 25,0 C 23,9 C 60 % 1011,1 hPa 0,0 l/m 0 min 0 min 229 W/m 12,9 km/h (3 Bft) 95,74 %
13.06.2020 14:56 24,9 C 25,0 C 23,9 C 61 % 1011,1 hPa 0,0 l/m 0 min 0 min 245 W/m 6,4 km/h (2 Bft) 93,48 %
13.06.2020 14:58 24,9 C 25,0 C 24,4 C 62 % 1011,1 hPa 0,0 l/m 0 min 0 min 262 W/m 6,4 km/h (2 Bft) 97,87 %
13.06.2020 15:00 24,9 C 25,6 C 24,4 C 61 % 1011,1 hPa 0,0 l/m 0 min 0 min 287 W/m 6,4 km/h (2 Bft) 95,74 %
13.06.2020 15:02 24,9 C 25,6 C 23,9 C 61 % 1011,1 hPa 0,0 l/m 0 min 0 min 304 W/m 12,9 km/h (3 Bft) 97,92 %
13.06.2020 15:04 24,9 C 25,6 C 23,9 C 61 % 1011,0 hPa 0,0 l/m 0 min 0 min 290 W/m 16,1 km/h (3 Bft) 97,87 %
13.06.2020 15:06 24,9 C 25,6 C 23,9 C 61 % 1011,0 hPa 0,0 l/m 0 min 0 min 280 W/m 12,9 km/h (3 Bft) 97,87 %
13.06.2020 15:08 24,9 C 25,6 C 24,4 C 61 % 1011,0 hPa 0,0 l/m 0 min 0 min 280 W/m 16,1 km/h (3 Bft) 100,00 %
13.06.2020 15:10 24,9 C 25,6 C 24,4 C 61 % 1011,0 hPa 0,0 l/m 0 min 0 min 289 W/m 12,9 km/h (3 Bft) 100,00 %
13.06.2020 15:12 24,9 C 25,6 C 24,4 C 61 % 1011,0 hPa 0,0 l/m 0 min 0 min 299 W/m 6,4 km/h (2 Bft) 97,87 %
13.06.2020 15:14 24,9 C 26,1 C 24,4 C 61 % 1011,0 hPa 0,0 l/m 0 min 0 min 306 W/m 6,4 km/h (2 Bft) 100,00 %
13.06.2020 15:16 24,9 C 26,1 C 24,4 C 61 % 1011,0 hPa 0,0 l/m 0 min 0 min 315 W/m 6,4 km/h (2 Bft) 100,00 %
13.06.2020 15:18 25,0 C 25,6 C 24,4 C 61 % 1011,0 hPa 0,0 l/m 0 min 0 min 330 W/m 12,9 km/h (3 Bft) 100,00 %
13.06.2020 15:20 25,0 C 26,1 C 24,4 C 61 % 1011,0 hPa 0,0 l/m 0 min 0 min 303 W/m 6,4 km/h (2 Bft) 100,00 %
13.06.2020 15:22 25,0 C 26,1 C 24,4 C 61 % 1011,0 hPa 0,0 l/m 0 min 0 min 273 W/m 12,9 km/h (3 Bft) 100,00 %
13.06.2020 15:24 25,1 C 25,6 C 24,4 C 61 % 1010,9 hPa 0,0 l/m 0 min 0 min 247 W/m 6,4 km/h (2 Bft) 100,00 %
13.06.2020 15:26 25,1 C 25,6 C 23,9 C 61 % 1010,9 hPa 0,0 l/m 0 min 0 min 231 W/m 12,9 km/h (3 Bft) 100,00 %
13.06.2020 15:28 25,1 C 25,6 C 23,9 C 61 % 1010,9 hPa 0,0 l/m 0 min 0 min 224 W/m 3,2 km/h (1 Bft) 100,00 %
13.06.2020 15:30 25,1 C 25,6 C 23,9 C 61 % 1010,9 hPa 0,0 l/m 0 min 0 min 218 W/m 6,4 km/h (2 Bft) 100,00 %
13.06.2020 15:32 25,1 C 25,0 C 23,9 C 61 % 1010,9 hPa 0,0 l/m 0 min 0 min 208 W/m 12,9 km/h (3 Bft) 100,00 %
13.06.2020 15:34 25,1 C 25,0 C 23,9 C 61 % 1010,8 hPa 0,0 l/m 0 min 0 min 201 W/m 9,7 km/h (2 Bft) 100,00 %
13.06.2020 15:36 25,1 C 25,0 C 23,9 C 61 % 1010,8 hPa 0,0 l/m 0 min 0 min 194 W/m 6,4 km/h (2 Bft) 100,00 %
13.06.2020 15:38 25,1 C 25,0 C 23,3 C 61 % 1010,8 hPa 0,0 l/m 0 min 0 min 197 W/m 0,0 km/h (0 Bft) 100,00 %
13.06.2020 15:40 25,1 C 25,0 C 23,3 C 64 % 1010,8 hPa 0,0 l/m 0 min 0 min 201 W/m 6,4 km/h (2 Bft) 100,00 %
13.06.2020 15:42 25,1 C 25,0 C 23,3 C 61 % 1010,8 hPa 0,0 l/m 0 min 0 min 203 W/m 3,2 km/h (1 Bft) 100,00 %
13.06.2020 15:44 25,1 C 25,0 C 23,3 C 61 % 1010,8 hPa 0,0 l/m 0 min 0 min 201 W/m 0,0 km/h (0 Bft) 100,00 %
13.06.2020 15:46 25,1 C 25,0 C 22,8 C 61 % 1010,8 hPa 0,0 l/m 0 min 2 min 193 W/m 6,4 km/h (2 Bft) 97,87 %
13.06.2020 15:48 25,1 C 25,0 C 23,3 C 61 % 1010,9 hPa 0,0 l/m 0 min 0 min 189 W/m 6,4 km/h (2 Bft) 100,00 %
13.06.2020 15:50 25,1 C 25,0 C 23,3 C 61 % 1010,9 hPa 0,0 l/m 0 min 0 min 196 W/m 12,9 km/h (3 Bft) 100,00 %
13.06.2020 15:52 25,1 C 25,0 C 22,8 C 63 % 1010,8 hPa 0,0 l/m 0 min 0 min 215 W/m 3,2 km/h (1 Bft) 100,00 %
13.06.2020 15:54 25,1 C 25,6 C 22,8 C 62 % 1010,9 hPa 0,0 l/m 0 min 0 min 268 W/m 6,4 km/h (2 Bft) 100,00 %
13.06.2020 15:56 25,1 C 25,6 C 22,8 C 62 % 1010,9 hPa 0,0 l/m 0 min 0 min 287 W/m 16,1 km/h (3 Bft) 100,00 %
13.06.2020 15:58 25,1 C 26,1 C 22,8 C 62 % 1010,8 hPa 0,0 l/m 0 min 0 min 336 W/m 6,4 km/h (2 Bft) 100,00 %
13.06.2020 16:00 25,1 C 27,2 C 23,3 C 61 % 1010,8 hPa 0,0 l/m 0 min 0 min 387 W/m 3,2 km/h (1 Bft) 97,87 %
13.06.2020 16:02 25,1 C 26,7 C 23,3 C 61 % 1010,7 hPa 0,0 l/m 0 min 0 min 336 W/m 6,4 km/h (2 Bft) 97,87 %
13.06.2020 16:04 25,1 C 26,7 C 23,9 C 61 % 1010,7 hPa 0,0 l/m 0 min 0 min 283 W/m 3,2 km/h (1 Bft) 100,00 %
13.06.2020 16:06 25,1 C 26,1 C 23,9 C 60 % 1010,8 hPa 0,0 l/m 0 min 0 min 257 W/m 12,9 km/h (3 Bft) 100,00 %
13.06.2020 16:08 25,1 C 26,1 C 23,3 C 61 % 1010,7 hPa 0,0 l/m 0 min 0 min 247 W/m 6,4 km/h (2 Bft) 97,87 %
13.06.2020 16:10 25,1 C 25,6 C 23,3 C 60 % 1010,7 hPa 0,0 l/m 0 min 0 min 233 W/m 12,9 km/h (3 Bft) 97,83 %
13.06.2020 16:12 25,1 C 25,6 C 23,9 C 60 % 1010,7 hPa 0,0 l/m 0 min 0 min 223 W/m 0,0 km/h (0 Bft) 97,87 %
13.06.2020 16:14 25,2 C 25,6 C 23,3 C 64 % 1010,6 hPa 0,0 l/m 0 min 0 min 211 W/m 0,0 km/h (0 Bft) 97,87 %
13.06.2020 16:16 25,2 C 25,6 C 22,8 C 67 % 1010,7 hPa 0,0 l/m 0 min 0 min 207 W/m 0,0 km/h (0 Bft) 97,87 %
13.06.2020 16:18 25,2 C 25,6 C 22,8 C 65 % 1010,7 hPa 0,0 l/m 0 min 0 min 217 W/m 0,0 km/h (0 Bft) 97,87 %
13.06.2020 16:20 25,2 C 25,6 C 22,8 C 66 % 1010,7 hPa 0,0 l/m 0 min 0 min 233 W/m 0,0 km/h (0 Bft) 97,83 %
13.06.2020 16:22 25,2 C 26,1 C 22,8 C 65 % 1010,7 hPa 0,0 l/m 0 min 0 min 256 W/m 0,0 km/h (0 Bft) 97,87 %
13.06.2020 16:24 25,2 C 26,7 C 22,8 C 63 % 1010,7 hPa 0,0 l/m 0 min 0 min 286 W/m 3,2 km/h (1 Bft) 97,87 %
13.06.2020 16:26 25,2 C 26,7 C 22,8 C 61 % 1010,7 hPa 0,0 l/m 0 min 0 min 332 W/m 3,2 km/h (1 Bft) 97,87 %
13.06.2020 16:28 25,2 C 27,2 C 22,8 C 62 % 1010,7 hPa 0,0 l/m 2 min 0 min 393 W/m 3,2 km/h (1 Bft) 97,87 %
13.06.2020 16:30 25,2 C 27,2 C 22,8 C 64 % 1010,7 hPa 0,0 l/m 2 min 0 min 469 W/m 6,4 km/h (2 Bft) 97,87 %
13.06.2020 16:32 25,2 C 29,4 C 23,3 C 63 % 1010,7 hPa 0,0 l/m 2 min 0 min 713 W/m 0,0 km/h (0 Bft) 95,65 %
13.06.2020 16:34 25,2 C 29,4 C 23,9 C 60 % 1010,8 hPa 0,0 l/m 2 min 0 min 724 W/m 12,9 km/h (3 Bft) 95,74 %
13.06.2020 16:36 25,3 C 28,3 C 23,9 C 57 % 1010,8 hPa 0,0 l/m 2 min 0 min 490 W/m 12,9 km/h (3 Bft) 97,87 %
13.06.2020 16:38 25,3 C 27,2 C 23,9 C 56 % 1010,7 hPa 0,0 l/m 0 min 0 min 346 W/m 6,4 km/h (2 Bft) 97,87 %
13.06.2020 16:40 25,4 C 26,7 C 23,9 C 57 % 1010,7 hPa 0,0 l/m 0 min 0 min 292 W/m 6,4 km/h (2 Bft) 97,87 %
13.06.2020 16:42 25,4 C 26,7 C 23,9 C 56 % 1010,7 hPa 0,0 l/m 0 min 0 min 270 W/m 3,2 km/h (1 Bft) 97,83 %
13.06.2020 16:44 25,5 C 26,7 C 23,9 C 61 % 1010,7 hPa 0,0 l/m 0 min 0 min 256 W/m 0,0 km/h (0 Bft) 95,74 %
13.06.2020 16:46 25,5 C 26,1 C 23,3 C 62 % 1010,7 hPa 0,0 l/m 0 min 0 min 243 W/m 6,4 km/h (2 Bft) 97,87 %
13.06.2020 16:48 25,6 C 26,1 C 23,3 C 57 % 1010,7 hPa 0,0 l/m 0 min 0 min 242 W/m 12,9 km/h (3 Bft) 97,87 %
13.06.2020 16:50 25,6 C 26,1 C 23,3 C 58 % 1010,6 hPa 0,0 l/m 0 min 0 min 258 W/m 3,2 km/h (1 Bft) 97,87 %
13.06.2020 16:52 25,6 C 26,1 C 23,9 C 56 % 1010,6 hPa 0,0 l/m 0 min 0 min 270 W/m 6,4 km/h (2 Bft) 97,87 %
13.06.2020 16:54 25,6 C 26,7 C 23,3 C 58 % 1010,5 hPa 0,0 l/m 0 min 0 min 278 W/m 0,0 km/h (0 Bft) 97,83 %
13.06.2020 16:56 25,7 C 26,7 C 23,3 C 63 % 1010,4 hPa 0,0 l/m 0 min 0 min 277 W/m 0,0 km/h (0 Bft) 97,87 %
13.06.2020 16:58 25,7 C 26,7 C 23,3 C 61 % 1010,4 hPa 0,0 l/m 0 min 0 min 270 W/m 0,0 km/h (0 Bft) 95,74 %
13.06.2020 17:00 25,7 C 26,7 C 23,3 C 60 % 1010,4 hPa 0,0 l/m 0 min 0 min 279 W/m 3,2 km/h (1 Bft) 91,49 %
13.06.2020 17:02 25,7 C 26,7 C 23,3 C 59 % 1010,4 hPa 0,0 l/m 0 min 0 min 274 W/m 0,0 km/h (0 Bft) 94,34 %
13.06.2020 17:04 25,7 C 26,1 C 23,3 C 58 % 1010,4 hPa 0,0 l/m 0 min 0 min 268 W/m 12,9 km/h (3 Bft) 97,62 %
13.06.2020 17:06 25,7 C 26,1 C 23,3 C 58 % 1010,4 hPa 0,0 l/m 0 min 0 min 258 W/m 12,9 km/h (3 Bft) 95,65 %
13.06.2020 17:08 25,7 C 26,1 C 23,3 C 58 % 1010,4 hPa 0,0 l/m 0 min 0 min 251 W/m 6,4 km/h (2 Bft) 95,74 %
13.06.2020 17:10 25,7 C 26,1 C 23,3 C 58 % 1010,4 hPa 0,0 l/m 0 min 0 min 249 W/m 3,2 km/h (1 Bft) 97,87 %
13.06.2020 17:12 25,7 C 26,7 C 23,3 C 58 % 1010,3 hPa 0,0 l/m 0 min 0 min 275 W/m 0,0 km/h (0 Bft) 95,74 %
13.06.2020 17:14 25,7 C 27,2 C 23,3 C 58 % 1010,2 hPa 0,0 l/m 0 min 0 min 278 W/m 3,2 km/h (1 Bft) 97,87 %
13.06.2020 17:16 25,7 C 26,7 C 23,3 C 58 % 1010,2 hPa 0,0 l/m 0 min 0 min 247 W/m 6,4 km/h (2 Bft) 93,62 %
13.06.2020 17:18 25,8 C 26,7 C 23,3 C 58 % 1010,2 hPa 0,0 l/m 0 min 0 min 217 W/m 0,0 km/h (0 Bft) 95,65 %
13.06.2020 17:20 25,8 C 26,7 C 23,3 C 60 % 1010,1 hPa 0,0 l/m 0 min 0 min 215 W/m 0,0 km/h (0 Bft) 95,74 %
13.06.2020 17:22 25,8 C 27,2 C 23,3 C 60 % 1010,1 hPa 0,0 l/m 0 min 0 min 220 W/m 3,2 km/h (1 Bft) 93,62 %
13.06.2020 17:24 25,8 C 27,2 C 22,8 C 59 % 1010,1 hPa 0,0 l/m 0 min 0 min 278 W/m 0,0 km/h (0 Bft) 95,74 %
13.06.2020 17:26 25,8 C 27,2 C 23,3 C 58 % 1010,1 hPa 0,0 l/m 0 min 0 min 301 W/m 0,0 km/h (0 Bft) 93,62 %
13.06.2020 17:28 25,9 C 27,8 C 23,3 C 61 % 1010,0 hPa 0,0 l/m 2 min 0 min 364 W/m 0,0 km/h (0 Bft) 95,74 %
13.06.2020 17:30 25,9 C 28,3 C 23,3 C 61 % 1010,0 hPa 0,0 l/m 2 min 0 min 486 W/m 0,0 km/h (0 Bft) 95,65 %
13.06.2020 17:32 25,9 C 27,8 C 22,8 C 62 % 1010,0 hPa 0,0 l/m 0 min 0 min 298 W/m 0,0 km/h (0 Bft) 93,62 %
13.06.2020 17:34 26,1 C 29,4 C 22,8 C 61 % 1009,9 hPa 0,0 l/m 2 min 0 min 389 W/m 3,2 km/h (1 Bft) 93,62 %
13.06.2020 17:36 26,1 C 30,0 C 22,8 C 62 % 1010,0 hPa 0,0 l/m 2 min 0 min 651 W/m 3,2 km/h (1 Bft) 97,87 %
13.06.2020 17:38 26,2 C 29,4 C 23,3 C 60 % 1009,9 hPa 0,0 l/m 2 min 0 min 663 W/m 3,2 km/h (1 Bft) 95,74 %
13.06.2020 17:40 26,3 C 30,0 C 23,3 C 63 % 1009,9 hPa 0,0 l/m 2 min 0 min 661 W/m 6,4 km/h (2 Bft) 95,74 %
13.06.2020 17:42 26,4 C 30,6 C 23,3 C 64 % 1009,9 hPa 0,0 l/m 2 min 0 min 666 W/m 3,2 km/h (1 Bft) 97,83 %
13.06.2020 17:44 26,6 C 31,1 C 23,3 C 64 % 1009,9 hPa 0,0 l/m 2 min 0 min 636 W/m 0,0 km/h (0 Bft) 97,87 %
13.06.2020 17:46 26,8 C 31,1 C 23,3 C 64 % 1009,8 hPa 0,0 l/m 2 min 0 min 615 W/m 3,2 km/h (1 Bft) 97,87 %
13.06.2020 17:48 26,9 C 31,7 C 23,3 C 63 % 1009,8 hPa 0,0 l/m 2 min 0 min 600 W/m 6,4 km/h (2 Bft) 95,74 %
13.06.2020 17:50 27,1 C 31,1 C 23,3 C 63 % 1009,8 hPa 0,0 l/m 2 min 0 min 592 W/m 6,4 km/h (2 Bft) 97,87 %
13.06.2020 17:52 27,2 C 31,1 C 23,3 C 60 % 1009,8 hPa 0,0 l/m 2 min 0 min 585 W/m 0,0 km/h (0 Bft) 97,87 %
13.06.2020 17:54 27,3 C 30,6 C 23,3 C 61 % 1009,8 hPa 0,0 l/m 2 min 0 min 579 W/m 3,2 km/h (1 Bft) 97,83 %
13.06.2020 17:56 27,4 C 30,6 C 23,3 C 61 % 1009,7 hPa 0,0 l/m 2 min 0 min 570 W/m 9,7 km/h (2 Bft) 97,87 %
13.06.2020 17:58 27,5 C 30,0 C 23,3 C 57 % 1009,8 hPa 0,0 l/m 2 min 0 min 564 W/m 6,4 km/h (2 Bft) 93,62 %
13.06.2020 18:00 27,6 C 30,6 C 23,3 C 58 % 1009,8 hPa 0,0 l/m 2 min 0 min 557 W/m 3,2 km/h (1 Bft) 97,87 %
13.06.2020 18:02 27,7 C 30,6 C 23,3 C 58 % 1009,8 hPa 0,0 l/m 2 min 0 min 549 W/m 0,0 km/h (0 Bft) 97,56 %
13.06.2020 18:04 27,8 C 30,0 C 23,3 C 58 % 1009,8 hPa 0,0 l/m 2 min 0 min 542 W/m 9,7 km/h (2 Bft) 97,87 %
13.06.2020 18:07 27,9 C 30,0 C 23,3 C 61 % 1009,7 hPa 0,0 l/m 3 min 0 min 534 W/m 6,4 km/h (2 Bft) 97,65 %
13.06.2020 18:08 27,9 C 30,0 C 23,3 C 61 % 1009,7 hPa 0,0 l/m 1 min 0 min 530 W/m 0,0 km/h (0 Bft) 100,00 %
13.06.2020 18:10 27,9 C 29,4 C 23,3 C 57 % 1009,8 hPa 0,0 l/m 2 min 0 min 526 W/m 6,4 km/h (2 Bft) 97,87 %
13.06.2020 18:12 28,1 C 29,4 C 23,3 C 57 % 1009,8 hPa 0,0 l/m 2 min 0 min 518 W/m 3,2 km/h (1 Bft) 100,00 %
13.06.2020 18:14 28,1 C 30,0 C 23,9 C 56 % 1009,8 hPa 0,0 l/m 2 min 0 min 513 W/m 3,2 km/h (1 Bft) 100,00 %
13.06.2020 18:16 28,1 C 29,4 C 23,3 C 59 % 1009,8 hPa 0,0 l/m 2 min 0 min 507 W/m 0,0 km/h (0 Bft) 100,00 %
13.06.2020 18:18 28,2 C 29,4 C 23,3 C 58 % 1009,8 hPa 0,0 l/m 2 min 0 min 502 W/m 9,7 km/h (2 Bft) 100,00 %
13.06.2020 18:20 28,2 C 28,9 C 23,3 C 57 % 1009,7 hPa 0,0 l/m 2 min 0 min 492 W/m 6,4 km/h (2 Bft) 100,00 %
13.06.2020 18:22 28,2 C 28,9 C 23,3 C 57 % 1009,7 hPa 0,0 l/m 2 min 0 min 484 W/m 3,2 km/h (1 Bft) 100,00 %
13.06.2020 18:24 28,2 C 28,3 C 23,3 C 58 % 1009,7 hPa 0,0 l/m 2 min 0 min 478 W/m 6,4 km/h (2 Bft) 100,00 %
13.06.2020 18:26 28,2 C 28,9 C 22,8 C 58 % 1009,7 hPa 0,0 l/m 2 min 0 min 474 W/m 6,4 km/h (2 Bft) 97,83 %
13.06.2020 18:28 28,2 C 28,9 C 23,3 C 55 % 1009,7 hPa 0,0 l/m 2 min 0 min 470 W/m 0,0 km/h (0 Bft) 100,00 %
13.06.2020 18:30 28,2 C 29,4 C 23,3 C 55 % 1009,7 hPa 0,0 l/m 2 min 0 min 462 W/m 0,0 km/h (0 Bft) 100,00 %
13.06.2020 18:32 28,3 C 29,4 C 23,3 C 60 % 1009,7 hPa 0,0 l/m 2 min 0 min 455 W/m 3,2 km/h (1 Bft) 100,00 %
13.06.2020 18:34 28,2 C 28,3 C 23,3 C 56 % 1009,7 hPa 0,0 l/m 2 min 0 min 448 W/m 6,4 km/h (2 Bft) 100,00 %
13.06.2020 18:36 28,2 C 28,3 C 23,3 C 58 % 1009,7 hPa 0,0 l/m 2 min 0 min 441 W/m 3,2 km/h (1 Bft) 100,00 %
13.06.2020 18:38 28,2 C 28,3 C 23,3 C 59 % 1009,7 hPa 0,0 l/m 2 min 0 min 439 W/m 3,2 km/h (1 Bft) 97,87 %
13.06.2020 18:40 28,2 C 28,3 C 22,8 C 59 % 1009,7 hPa 0,0 l/m 2 min 0 min 431 W/m 6,4 km/h (2 Bft) 100,00 %
13.06.2020 18:42 28,1 C 28,3 C 22,8 C 58 % 1009,7 hPa 0,0 l/m 2 min 0 min 426 W/m 3,2 km/h (1 Bft) 97,87 %
13.06.2020 18:44 28,1 C 28,3 C 22,8 C 62 % 1009,7 hPa 0,0 l/m 2 min 0 min 421 W/m 0,0 km/h (0 Bft) 100,00 %
13.06.2020 18:46 28,1 C 27,8 C 22,8 C 59 % 1009,7 hPa 0,0 l/m 2 min 0 min 416 W/m 0,0 km/h (0 Bft) 100,00 %
13.06.2020 18:48 28,0 C 28,3 C 22,8 C 59 % 1009,7 hPa 0,0 l/m 2 min 0 min 408 W/m 3,2 km/h (1 Bft) 100,00 %
13.06.2020 18:50 28,0 C 27,8 C 22,8 C 57 % 1009,7 hPa 0,0 l/m 2 min 0 min 399 W/m 6,4 km/h (2 Bft) 100,00 %
13.06.2020 18:52 27,9 C 27,2 C 22,8 C 59 % 1009,8 hPa 0,0 l/m 2 min 0 min 396 W/m 6,4 km/h (2 Bft) 100,00 %
13.06.2020 18:54 27,9 C 27,8 C 22,8 C 61 % 1009,8 hPa 0,0 l/m 2 min 0 min 390 W/m 0,0 km/h (0 Bft) 100,00 %
13.06.2020 18:56 27,9 C 27,8 C 22,8 C 58 % 1009,8 hPa 0,0 l/m 2 min 0 min 383 W/m 3,2 km/h (1 Bft) 100,00 %
13.06.2020 18:58 27,8 C 27,8 C 22,2 C 61 % 1009,9 hPa 0,0 l/m 2 min 0 min 373 W/m 0,0 km/h (0 Bft) 100,00 %
13.06.2020 19:00 27,8 C 27,2 C 22,2 C 60 % 1009,9 hPa 0,0 l/m 2 min 0 min 371 W/m 0,0 km/h (0 Bft) 100,00 %
13.06.2020 19:02 27,8 C 27,2 C 22,2 C 58 % 1009,9 hPa 0,0 l/m 2 min 0 min 366 W/m 0,0 km/h (0 Bft) 100,00 %
13.06.2020 19:04 27,8 C 27,2 C 22,2 C 63 % 1010,0 hPa 0,0 l/m 2 min 0 min 356 W/m 0,0 km/h (0 Bft) 100,00 %
13.06.2020 19:06 27,7 C 27,2 C 22,2 C 61 % 1010,0 hPa 0,0 l/m 2 min 0 min 345 W/m 3,2 km/h (1 Bft) 100,00 %
13.06.2020 19:08 27,7 C 27,2 C 22,2 C 61 % 1010,0 hPa 0,0 l/m 2 min 0 min 341 W/m 3,2 km/h (1 Bft) 100,00 %
13.06.2020 19:10 27,7 C 26,7 C 22,2 C 62 % 1009,9 hPa 0,0 l/m 2 min 0 min 337 W/m 0,0 km/h (0 Bft) 100,00 %
13.06.2020 19:12 27,6 C 26,7 C 21,7 C 63 % 1010,0 hPa 0,0 l/m 2 min 0 min 331 W/m 3,2 km/h (1 Bft) 100,00 %
13.06.2020 19:14 27,6 C 26,7 C 21,7 C 63 % 1010,0 hPa 0,0 l/m 2 min 0 min 329 W/m 3,2 km/h (1 Bft) 100,00 %
13.06.2020 19:16 27,5 C 26,7 C 21,7 C 62 % 1010,0 hPa 0,0 l/m 2 min 0 min 323 W/m 3,2 km/h (1 Bft) 100,00 %
13.06.2020 19:18 27,5 C 26,1 C 21,7 C 63 % 1010,0 hPa 0,0 l/m 2 min 0 min 320 W/m 0,0 km/h (0 Bft) 100,00 %
13.06.2020 19:20 27,4 C 26,1 C 21,7 C 61 % 1010,0 hPa 0,0 l/m 2 min 0 min 316 W/m 3,2 km/h (1 Bft) 100,00 %
13.06.2020 19:22 27,3 C 26,1 C 21,7 C 62 % 1010,0 hPa 0,0 l/m 2 min 0 min 311 W/m 6,4 km/h (2 Bft) 100,00 %
13.06.2020 19:24 27,3 C 26,1 C 21,7 C 61 % 1009,9 hPa 0,0 l/m 2 min 0 min 304 W/m 3,2 km/h (1 Bft) 97,87 %
13.06.2020 19:26 27,3 C 26,1 C 21,7 C 61 % 1009,9 hPa 0,0 l/m 2 min 0 min 298 W/m 0,0 km/h (0 Bft) 100,00 %
13.06.2020 19:28 27,2 C 26,1 C 21,7 C 61 % 1009,9 hPa 0,0 l/m 2 min 0 min 291 W/m 3,2 km/h (1 Bft) 97,87 %
13.06.2020 19:30 27,2 C 26,1 C 21,1 C 62 % 1010,0 hPa 0,0 l/m 2 min 0 min 210 W/m 3,2 km/h (1 Bft) 97,87 %
13.06.2020 19:32 27,1 C 25,6 C 21,1 C 62 % 1010,0 hPa 0,0 l/m 0 min 0 min 77 W/m 6,4 km/h (2 Bft) 97,87 %
13.06.2020 19:34 27,0 C 25,0 C 21,1 C 62 % 1010,0 hPa 0,0 l/m 0 min 0 min 69 W/m 0,0 km/h (0 Bft) 97,83 %
13.06.2020 19:36 26,9 C 25,0 C 21,7 C 61 % 1010,0 hPa 0,0 l/m 0 min 0 min 94 W/m 6,4 km/h (2 Bft) 97,87 %
13.06.2020 19:38 26,9 C 25,0 C 21,1 C 61 % 1010,0 hPa 0,0 l/m 2 min 0 min 223 W/m 6,4 km/h (2 Bft) 100,00 %
13.06.2020 19:40 26,8 C 25,0 C 21,7 C 62 % 1010,0 hPa 0,0 l/m 2 min 0 min 262 W/m 3,2 km/h (1 Bft) 97,87 %
13.06.2020 19:42 26,8 C 25,0 C 21,1 C 63 % 1010,0 hPa 0,0 l/m 2 min 0 min 246 W/m 3,2 km/h (1 Bft) 100,00 %
13.06.2020 19:44 26,7 C 24,4 C 21,1 C 64 % 1010,0 hPa 0,0 l/m 0 min 0 min 110 W/m 0,0 km/h (0 Bft) 100,00 %
13.06.2020 19:46 26,5 C 23,9 C 21,1 C 63 % 1010,1 hPa 0,0 l/m 0 min 0 min 75 W/m 0,0 km/h (0 Bft) 100,00 %
13.06.2020 19:48 26,4 C 23,9 C 21,1 C 64 % 1010,1 hPa 0,0 l/m 0 min 0 min 95 W/m 0,0 km/h (0 Bft) 97,87 %
13.06.2020 19:50 26,2 C 23,9 C 21,1 C 64 % 1010,2 hPa 0,0 l/m 0 min 0 min 97 W/m 0,0 km/h (0 Bft) 97,87 %
13.06.2020 19:52 26,1 C 23,9 C 21,1 C 63 % 1010,2 hPa 0,0 l/m 0 min 0 min 98 W/m 0,0 km/h (0 Bft) 97,87 %
13.06.2020 19:54 26,1 C 23,9 C 21,1 C 63 % 1010,2 hPa 0,0 l/m 0 min 0 min 90 W/m 0,0 km/h (0 Bft) 91,49 %
13.06.2020 19:56 25,9 C 23,9 C 21,1 C 63 % 1010,2 hPa 0,0 l/m 0 min 0 min 85 W/m 0,0 km/h (0 Bft) 93,62 %
13.06.2020 19:58 25,9 C 23,9 C 21,1 C 63 % 1010,3 hPa 0,0 l/m 0 min 0 min 92 W/m 0,0 km/h (0 Bft) 95,65 %
13.06.2020 20:00 25,8 C 23,9 C 21,1 C 63 % 1010,2 hPa 0,0 l/m 0 min 0 min 88 W/m 0,0 km/h (0 Bft) 95,74 %
13.06.2020 20:02 25,7 C 23,9 C 21,1 C 63 % 1010,2 hPa 0,0 l/m 0 min 0 min 82 W/m 0,0 km/h (0 Bft) 93,75 %
13.06.2020 20:04 25,7 C 23,9 C 21,1 C 64 % 1010,3 hPa 0,0 l/m 0 min 0 min 81 W/m 0,0 km/h (0 Bft) 91,49 %
13.06.2020 20:06 25,6 C 23,9 C 21,1 C 64 % 1010,3 hPa 0,0 l/m 0 min 0 min 73 W/m 0,0 km/h (0 Bft) 93,62 %
13.06.2020 20:08 25,6 C 23,9 C 21,1 C 63 % 1010,3 hPa 0,0 l/m 0 min 0 min 69 W/m 0,0 km/h (0 Bft) 95,65 %
13.06.2020 20:09 25,5 C 23,9 C 21,1 C 64 % 1010,3 hPa 0,0 l/m 0 min 0 min 70 W/m 0,0 km/h (0 Bft) 93,62 %
13.06.2020 20:12 25,4 C 23,9 C 21,1 C 64 % 1010,4 hPa 0,0 l/m 0 min 0 min 65 W/m 0,0 km/h (0 Bft) 91,49 %
13.06.2020 20:14 25,4 C 23,9 C 21,1 C 65 % 1010,4 hPa 0,0 l/m 0 min 0 min 55 W/m 0,0 km/h (0 Bft) 93,62 %
13.06.2020 20:16 25,3 C 23,9 C 21,1 C 64 % 1010,4 hPa 0,0 l/m 0 min 0 min 52 W/m 0,0 km/h (0 Bft) 93,62 %
13.06.2020 20:18 25,3 C 23,9 C 21,1 C 65 % 1010,5 hPa 0,0 l/m 0 min 0 min 46 W/m 0,0 km/h (0 Bft) 91,49 %
13.06.2020 20:20 25,3 C 23,9 C 21,1 C 66 % 1010,6 hPa 0,0 l/m 0 min 0 min 41 W/m 0,0 km/h (0 Bft) 93,48 %
13.06.2020 20:22 25,2 C 23,3 C 21,1 C 67 % 1010,7 hPa 0,0 l/m 0 min 0 min 37 W/m 3,2 km/h (1 Bft) 91,49 %
13.06.2020 20:24 25,2 C 23,3 C 21,1 C 68 % 1010,7 hPa 0,0 l/m 0 min 0 min 33 W/m 0,0 km/h (0 Bft) 93,62 %
13.06.2020 20:26 25,2 C 23,3 C 20,6 C 67 % 1010,7 hPa 0,0 l/m 0 min 0 min 31 W/m 0,0 km/h (0 Bft) 93,62 %
13.06.2020 20:28 25,1 C 22,8 C 20,6 C 67 % 1010,6 hPa 0,0 l/m 0 min 0 min 30 W/m 0,0 km/h (0 Bft) 93,62 %
13.06.2020 20:30 25,1 C 22,8 C 20,6 C 67 % 1010,7 hPa 0,0 l/m 0 min 0 min 28 W/m 0,0 km/h (0 Bft) 95,74 %
13.06.2020 20:32 24,9 C 22,8 C 20,6 C 66 % 1010,7 hPa 0,0 l/m 0 min 0 min 27 W/m 0,0 km/h (0 Bft) 97,83 %
13.06.2020 20:34 24,9 C 22,8 C 20,6 C 65 % 1010,7 hPa 0,0 l/m 0 min 0 min 25 W/m 0,0 km/h (0 Bft) 93,62 %
13.06.2020 20:36 24,8 C 22,8 C 20,6 C 65 % 1010,7 hPa 0,0 l/m 0 min 0 min 23 W/m 0,0 km/h (0 Bft) 95,74 %
13.06.2020 20:38 24,8 C 22,8 C 20,6 C 65 % 1010,7 hPa 0,0 l/m 0 min 0 min 23 W/m 0,0 km/h (0 Bft) 95,74 %
13.06.2020 20:40 24,7 C 22,8 C 20,6 C 65 % 1010,8 hPa 0,0 l/m 0 min 0 min 21 W/m 0,0 km/h (0 Bft) 95,74 %
13.06.2020 20:42 24,7 C 22,8 C 20,0 C 65 % 1010,8 hPa 0,0 l/m 0 min 0 min 21 W/m 0,0 km/h (0 Bft) 95,74 %
13.06.2020 20:44 24,7 C 22,8 C 20,0 C 66 % 1010,8 hPa 0,0 l/m 0 min 0 min 19 W/m 0,0 km/h (0 Bft) 93,48 %
13.06.2020 20:46 24,7 C 22,8 C 20,0 C 66 % 1010,8 hPa 0,0 l/m 0 min 0 min 17 W/m 0,0 km/h (0 Bft) 95,74 %
13.06.2020 20:48 24,6 C 22,8 C 20,0 C 66 % 1010,9 hPa 0,0 l/m 0 min 0 min 14 W/m 0,0 km/h (0 Bft) 97,87 %
13.06.2020 20:50 24,6 C 22,8 C 20,0 C 65 % 1010,9 hPa 0,0 l/m 0 min 0 min 12 W/m 0,0 km/h (0 Bft) 95,74 %
13.06.2020 20:52 24,6 C 22,8 C 20,0 C 65 % 1010,9 hPa 0,0 l/m 0 min 0 min 10 W/m 3,2 km/h (1 Bft) 97,87 %
13.06.2020 20:54 24,5 C 22,8 C 20,0 C 65 % 1010,9 hPa 0,0 l/m 0 min 0 min 9 W/m 0,0 km/h (0 Bft) 97,87 %
13.06.2020 20:56 24,4 C 22,8 C 20,0 C 65 % 1011,0 hPa 0,0 l/m 0 min 0 min 7 W/m 0,0 km/h (0 Bft) 95,65 %
13.06.2020 20:58 24,4 C 22,8 C 20,0 C 66 % 1011,0 hPa 0,0 l/m 0 min 0 min 7 W/m 0,0 km/h (0 Bft) 98,08 %
13.06.2020 21:00 24,4 C 22,2 C 20,0 C 66 % 1011,0 hPa 0,0 l/m 0 min 0 min 5 W/m 0,0 km/h (0 Bft) 97,87 %
13.06.2020 21:02 24,4 C 22,2 C 19,4 C 66 % 1011,1 hPa 0,0 l/m 0 min 0 min 5 W/m 0,0 km/h (0 Bft) 95,74 %
13.06.2020 21:04 24,3 C 22,2 C 19,4 C 67 % 1011,1 hPa 0,0 l/m 0 min 0 min 5 W/m 0,0 km/h (0 Bft) 95,74 %
13.06.2020 21:06 24,3 C 22,2 C 19,4 C 68 % 1011,2 hPa 0,0 l/m 0 min 2 min 1 W/m 0,0 km/h (0 Bft) 97,83 %
13.06.2020 21:08 24,2 C 22,2 C 19,4 C 68 % 1011,2 hPa 0,0 l/m 0 min 0 min 0 W/m 0,0 km/h (0 Bft) 97,87 %
13.06.2020 21:10 24,2 C 22,2 C 19,4 C 68 % 1011,2 hPa 0,0 l/m 0 min 0 min 0 W/m 0,0 km/h (0 Bft) 100,00 %
13.06.2020 21:12 24,1 C 21,7 C 19,4 C 68 % 1011,3 hPa 0,0 l/m 0 min 0 min 0 W/m 0,0 km/h (0 Bft) 100,00 %
13.06.2020 21:14 24,1 C 21,7 C 19,4 C 68 % 1011,3 hPa 0,0 l/m 0 min 0 min 0 W/m 0,0 km/h (0 Bft) 97,87 %
13.06.2020 21:16 24,1 C 21,7 C 19,4 C 68 % 1011,3 hPa 0,0 l/m 0 min 0 min 0 W/m 0,0 km/h (0 Bft) 100,00 %
13.06.2020 21:18 24,0 C 21,1 C 19,4 C 69 % 1011,3 hPa 0,0 l/m 0 min 0 min 0 W/m 0,0 km/h (0 Bft) 100,00 %
13.06.2020 21:20 24,0 C 21,7 C 19,4 C 69 % 1011,4 hPa 0,0 l/m 0 min 0 min 0 W/m 0,0 km/h (0 Bft) 100,00 %
13.06.2020 21:22 23,9 C 21,7 C 19,4 C 69 % 1011,3 hPa 0,0 l/m 0 min 0 min 0 W/m 0,0 km/h (0 Bft) 100,00 %
13.06.2020 21:24 23,9 C 21,7 C 19,4 C 69 % 1011,4 hPa 0,0 l/m 0 min 0 min 0 W/m 0,0 km/h (0 Bft) 97,87 %
13.06.2020 21:26 23,8 C 21,7 C 19,4 C 69 % 1011,4 hPa 0,0 l/m 0 min 0 min 0 W/m 0,0 km/h (0 Bft) 100,00 %
13.06.2020 21:28 23,8 C 21,7 C 19,4 C 68 % 1011,4 hPa 0,0 l/m 0 min 0 min 0 W/m 3,2 km/h (1 Bft) 100,00 %
13.06.2020 21:30 23,7 C 21,7 C 19,4 C 68 % 1011,4 hPa 0,0 l/m 0 min 0 min 0 W/m 0,0 km/h (0 Bft) 97,87 %
13.06.2020 21:32 23,7 C 21,7 C 19,4 C 69 % 1011,4 hPa 0,0 l/m 0 min 2 min 0 W/m 0,0 km/h (0 Bft) 95,83 %
13.06.2020 21:34 23,6 C 21,7 C 19,4 C 69 % 1011,4 hPa 0,0 l/m 0 min 0 min 0 W/m 0,0 km/h (0 Bft) 100,00 %
13.06.2020 21:36 23,6 C 21,1 C 19,4 C 69 % 1011,4 hPa 0,0 l/m 0 min 0 min 0 W/m 0,0 km/h (0 Bft) 100,00 %
13.06.2020 21:38 23,6 C 21,1 C 19,4 C 69 % 1011,4 hPa 0,0 l/m 0 min 0 min 0 W/m 0,0 km/h (0 Bft) 100,00 %
13.06.2020 21:40 23,5 C 21,1 C 19,4 C 69 % 1011,5 hPa 0,0 l/m 0 min 0 min 0 W/m 0,0 km/h (0 Bft) 100,00 %
13.06.2020 21:42 23,4 C 21,1 C 19,4 C 69 % 1011,5 hPa 0,0 l/m 0 min 2 min 0 W/m 0,0 km/h (0 Bft) 97,87 %
13.06.2020 21:44 23,4 C 21,1 C 19,4 C 69 % 1011,5 hPa 0,0 l/m 0 min 2 min 0 W/m 0,0 km/h (0 Bft) 100,00 %
13.06.2020 21:46 23,4 C 20,6 C 18,9 C 70 % 1011,5 hPa 0,0 l/m 0 min 2 min 0 W/m 0,0 km/h (0 Bft) 100,00 %
13.06.2020 21:48 23,3 C 20,6 C 18,9 C 71 % 1011,5 hPa 0,0 l/m 0 min 0 min 0 W/m 3,2 km/h (1 Bft) 97,87 %
13.06.2020 21:50 23,3 C 20,6 C 18,9 C 73 % 1011,4 hPa 0,0 l/m 0 min 0 min 0 W/m 3,2 km/h (1 Bft) 100,00 %
13.06.2020 21:52 23,2 C 20,6 C 18,9 C 73 % 1011,5 hPa 0,0 l/m 0 min 0 min 0 W/m 0,0 km/h (0 Bft) 100,00 %
13.06.2020 21:54 23,2 C 20,6 C 18,9 C 72 % 1011,4 hPa 0,0 l/m 0 min 0 min 0 W/m 3,2 km/h (1 Bft) 100,00 %
13.06.2020 21:56 23,1 C 20,6 C 18,9 C 72 % 1011,5 hPa 0,0 l/m 0 min 0 min 0 W/m 0,0 km/h (0 Bft) 100,00 %
13.06.2020 21:58 23,0 C 20,6 C 18,9 C 72 % 1011,5 hPa 0,0 l/m 0 min 0 min 0 W/m 0,0 km/h (0 Bft) 97,87 %
13.06.2020 22:00 22,9 C 20,6 C 18,9 C 71 % 1011,4 hPa 0,0 l/m 0 min 0 min 0 W/m 3,2 km/h (1 Bft) 100,00 %
13.06.2020 22:02 22,9 C 21,1 C 18,9 C 71 % 1011,4 hPa 0,0 l/m 0 min 0 min 0 W/m 3,2 km/h (1 Bft) 95,74 %
13.06.2020 22:04 22,8 C 21,1 C 18,9 C 71 % 1011,3 hPa 0,0 l/m 0 min 0 min 0 W/m 3,2 km/h (1 Bft) 100,00 %
13.06.2020 22:06 22,8 C 21,1 C 18,9 C 71 % 1011,3 hPa 0,0 l/m 0 min 0 min 0 W/m 0,0 km/h (0 Bft) 100,00 %
13.06.2020 22:08 22,7 C 21,1 C 18,9 C 71 % 1011,3 hPa 0,0 l/m 0 min 0 min 0 W/m 0,0 km/h (0 Bft) 100,00 %
13.06.2020 22:10 22,7 C 21,1 C 18,9 C 71 % 1011,3 hPa 0,0 l/m 0 min 0 min 0 W/m 0,0 km/h (0 Bft) 100,00 %
13.06.2020 22:12 22,7 C 20,6 C 18,9 C 71 % 1011,3 hPa 0,0 l/m 0 min 0 min 0 W/m 0,0 km/h (0 Bft) 100,00 %
13.06.2020 22:14 22,6 C 20,6 C 18,9 C 71 % 1011,4 hPa 0,0 l/m 0 min 0 min 0 W/m 0,0 km/h (0 Bft) 100,00 %
13.06.2020 22:16 22,6 C 20,6 C 18,9 C 71 % 1011,4 hPa 0,0 l/m 0 min 0 min 0 W/m 0,0 km/h (0 Bft) 97,87 %
13.06.2020 22:18 22,6 C 20,6 C 18,9 C 71 % 1011,4 hPa 0,0 l/m 0 min 0 min 0 W/m 0,0 km/h (0 Bft) 97,87 %
13.06.2020 22:20 22,6 C 20,6 C 18,9 C 71 % 1011,4 hPa 0,0 l/m 0 min 0 min 0 W/m 0,0 km/h (0 Bft) 100,00 %
13.06.2020 22:22 22,5 C 20,6 C 18,9 C 71 % 1011,4 hPa 0,0 l/m 0 min 0 min 0 W/m 0,0 km/h (0 Bft) 100,00 %
13.06.2020 22:24 22,5 C 20,6 C 18,9 C 71 % 1011,5 hPa 0,0 l/m 0 min 0 min 0 W/m 0,0 km/h (0 Bft) 97,92 %
13.06.2020 22:26 22,4 C 20,6 C 18,9 C 72 % 1011,5 hPa 0,0 l/m 0 min 0 min 0 W/m 0,0 km/h (0 Bft) 95,74 %
13.06.2020 22:28 22,4 C 20,6 C 18,9 C 72 % 1011,5 hPa 0,0 l/m 0 min 0 min 0 W/m 0,0 km/h (0 Bft) 97,87 %
13.06.2020 22:30 22,4 C 20,6 C 18,9 C 72 % 1011,5 hPa 0,0 l/m 0 min 0 min 0 W/m 0,0 km/h (0 Bft) 97,87 %
13.06.2020 22:32 22,3 C 20,6 C 18,9 C 72 % 1011,6 hPa 0,0 l/m 0 min 0 min 0 W/m 0,0 km/h (0 Bft) 97,22 %
13.06.2020 22:34 22,3 C 20,6 C 18,9 C 72 % 1011,5 hPa 0,0 l/m 0 min 0 min 0 W/m 0,0 km/h (0 Bft) 97,87 %
13.06.2020 22:36 22,3 C 20,6 C 18,9 C 72 % 1011,6 hPa 0,0 l/m 0 min 0 min 0 W/m 3,2 km/h (1 Bft) 97,87 %
13.06.2020 22:38 22,3 C 20,6 C 18,9 C 72 % 1011,5 hPa 0,0 l/m 0 min 0 min 0 W/m 0,0 km/h (0 Bft) 97,87 %
13.06.2020 22:40 22,2 C 20,6 C 18,9 C 72 % 1011,5 hPa 0,0 l/m 0 min 0 min 0 W/m 0,0 km/h (0 Bft) 97,87 %
13.06.2020 22:42 22,2 C 20,6 C 18,9 C 72 % 1011,5 hPa 0,0 l/m 0 min 0 min 0 W/m 0,0 km/h (0 Bft) 97,83 %
13.06.2020 22:44 22,2 C 20,6 C 18,9 C 72 % 1011,6 hPa 0,0 l/m 0 min 0 min 0 W/m 0,0 km/h (0 Bft) 97,87 %
13.06.2020 22:46 22,2 C 20,6 C 18,9 C 72 % 1011,6 hPa 0,0 l/m 0 min 0 min 0 W/m 0,0 km/h (0 Bft) 97,87 %
13.06.2020 22:48 22,1 C 20,6 C 18,9 C 72 % 1011,6 hPa 0,0 l/m 0 min 0 min 0 W/m 0,0 km/h (0 Bft) 95,74 %
13.06.2020 22:50 22,1 C 20,6 C 18,9 C 72 % 1011,6 hPa 0,0 l/m 0 min 0 min 0 W/m 0,0 km/h (0 Bft) 97,87 %
13.06.2020 22:52 22,1 C 20,6 C 18,9 C 72 % 1011,6 hPa 0,0 l/m 0 min 0 min 0 W/m 0,0 km/h (0 Bft) 97,83 %
13.06.2020 22:54 22,1 C 20,6 C 18,9 C 72 % 1011,6 hPa 0,0 l/m 0 min 0 min 0 W/m 0,0 km/h (0 Bft) 95,74 %
13.06.2020 22:56 22,0 C 20,6 C 18,9 C 72 % 1011,6 hPa 0,0 l/m 0 min 0 min 0 W/m 0,0 km/h (0 Bft) 97,87 %
13.06.2020 22:58 22,0 C 20,6 C 18,3 C 72 % 1011,6 hPa 0,0 l/m 0 min 0 min 0 W/m 0,0 km/h (0 Bft) 95,74 %
13.06.2020 23:00 21,9 C 20,0 C 18,3 C 72 % 1011,5 hPa 0,0 l/m 0 min 0 min 0 W/m 0,0 km/h (0 Bft) 93,62 %
13.06.2020 23:02 21,9 C 20,0 C 18,3 C 72 % 1011,5 hPa 0,0 l/m 0 min 0 min 0 W/m 0,0 km/h (0 Bft) 97,87 %
13.06.2020 23:04 21,9 C 20,0 C 18,3 C 72 % 1011,5 hPa 0,0 l/m 0 min 0 min 0 W/m 0,0 km/h (0 Bft) 97,83 %
13.06.2020 23:06 21,9 C 20,0 C 18,3 C 72 % 1011,5 hPa 0,0 l/m 0 min 0 min 0 W/m 0,0 km/h (0 Bft) 93,62 %
13.06.2020 23:08 21,8 C 20,0 C 18,3 C 73 % 1011,6 hPa 0,0 l/m 0 min 0 min 0 W/m 0,0 km/h (0 Bft) 94,34 %
13.06.2020 23:10 21,8 C 20,0 C 18,3 C 73 % 1011,6 hPa 0,0 l/m 0 min 0 min 0 W/m 0,0 km/h (0 Bft) 100,00 %
13.06.2020 23:12 21,8 C 20,0 C 18,3 C 73 % 1011,6 hPa 0,0 l/m 0 min 0 min 0 W/m 0,0 km/h (0 Bft) 91,84 %
13.06.2020 23:14 21,8 C 20,0 C 18,3 C 74 % 1011,6 hPa 0,0 l/m 0 min 0 min 0 W/m 0,0 km/h (0 Bft) 95,74 %
13.06.2020 23:16 21,8 C 20,0 C 18,3 C 74 % 1011,5 hPa 0,0 l/m 0 min 0 min 0 W/m 0,0 km/h (0 Bft) 89,58 %
13.06.2020 23:18 21,7 C 20,0 C 18,3 C 74 % 1011,5 hPa 0,0 l/m 0 min 0 min 0 W/m 0,0 km/h (0 Bft) 95,83 %
13.06.2020 23:20 21,7 C 20,0 C 18,3 C 74 % 1011,5 hPa 0,0 l/m 0 min 0 min 0 W/m 0,0 km/h (0 Bft) 95,74 %
13.06.2020 23:22 21,7 C 20,0 C 18,3 C 74 % 1011,5 hPa 0,0 l/m 0 min 0 min 0 W/m 0,0 km/h (0 Bft) 95,83 %
13.06.2020 23:24 21,7 C 20,0 C 18,3 C 74 % 1011,5 hPa 0,0 l/m 0 min 0 min 0 W/m 0,0 km/h (0 Bft) 93,62 %
13.06.2020 23:26 21,6 C 20,0 C 18,3 C 75 % 1011,5 hPa 0,0 l/m 0 min 0 min 0 W/m 0,0 km/h (0 Bft) 95,74 %
13.06.2020 23:28 21,6 C 20,0 C 18,3 C 75 % 1011,6 hPa 0,0 l/m 0 min 0 min 0 W/m 0,0 km/h (0 Bft) 95,65 %
13.06.2020 23:30 21,6 C 20,0 C 18,3 C 75 % 1011,6 hPa 0,0 l/m 0 min 0 min 0 W/m 0,0 km/h (0 Bft) 97,87 %
13.06.2020 23:32 21,6 C 19,4 C 17,8 C 75 % 1011,6 hPa 0,0 l/m 0 min 0 min 0 W/m 0,0 km/h (0 Bft) 95,74 %
13.06.2020 23:34 21,6 C 19,4 C 17,8 C 75 % 1011,6 hPa 0,0 l/m 0 min 0 min 0 W/m 0,0 km/h (0 Bft) 95,74 %
13.06.2020 23:36 21,5 C 19,4 C 17,8 C 75 % 1011,6 hPa 0,0 l/m 0 min 0 min 0 W/m 0,0 km/h (0 Bft) 92,68 %
13.06.2020 23:38 21,5 C 19,4 C 17,8 C 75 % 1011,5 hPa 0,0 l/m 0 min 0 min 0 W/m 0,0 km/h (0 Bft) 91,67 %
13.06.2020 23:40 21,4 C 19,4 C 17,8 C 76 % 1011,5 hPa 0,0 l/m 0 min 0 min 0 W/m 0,0 km/h (0 Bft) 97,22 %
13.06.2020 23:42 21,4 C 18,9 C 17,8 C 76 % 1011,4 hPa 0,0 l/m 0 min 0 min 0 W/m 0,0 km/h (0 Bft) 93,88 %
13.06.2020 23:44 21,4 C 18,9 C 17,2 C 76 % 1011,3 hPa 0,0 l/m 0 min 0 min 0 W/m 0,0 km/h (0 Bft) 95,65 %
13.06.2020 23:46 21,3 C 18,9 C 17,2 C 76 % 1011,4 hPa 0,0 l/m 0 min 0 min 0 W/m 0,0 km/h (0 Bft) 93,75 %
13.06.2020 23:48 21,3 C 18,3 C 17,2 C 77 % 1011,4 hPa 0,0 l/m 0 min 0 min 0 W/m 0,0 km/h (0 Bft) 95,83 %
13.06.2020 23:50 21,2 C 18,3 C 17,2 C 78 % 1011,4 hPa 0,0 l/m 0 min 0 min 0 W/m 0,0 km/h (0 Bft) 95,74 %
13.06.2020 23:52 21,2 C 18,3 C 17,2 C 78 % 1011,5 hPa 0,0 l/m 0 min 0 min 0 W/m 0,0 km/h (0 Bft) 95,65 %
13.06.2020 23:54 21,1 C 18,3 C 17,2 C 78 % 1011,6 hPa 0,0 l/m 0 min 0 min 0 W/m 0,0 km/h (0 Bft) 95,74 %
13.06.2020 23:56 21,1 C 18,3 C 17,2 C 78 % 1011,7 hPa 0,0 l/m 0 min 0 min 0 W/m 0,0 km/h (0 Bft) 95,74 %
13.06.2020 23:58 21,0 C 17,8 C 17,2 C 78 % 1011,8 hPa 0,0 l/m 0 min 0 min 0 W/m 0,0 km/h (0 Bft) 95,74 %
_ Min-Zeit 05:36 03:36 05:30 13:48 00:00 - - - - 00:00 07:10
Minimum _ 16,1 C 14,4 C 14,4 C 55 % 1007,7 hPa - - - - 0,0 km/h (0 Bft) 89,36 %
_ Max-Zeit 18:32 12:04 10:58 07:30 23:58 03:18 12:08 03:08 13:38 11:06 00:00
Maximum _ 28,3 C 33,3 C 38,9 C 98 % 1011,8 hPa 0,2 l/m 4 min 2 min 1207 W/m 25,7 km/h
S-SO (4 Bft)
100,00 %
Durchschnitt _ 22,0 C 22,3 C 21,7 C 76 % 1010,4 hPa #0,4 l/m #6:14 h #46 min. 338 W/m 4,8 km/h (1 Bft) 97,62 %
© 2020 W. Hausmann